<?xml version="1.0" encoding="UTF-8" standalone="no" ?>
<gpx xmlns="http://www.topografix.com/GPX/1/1" xmlns:xsi="http://www.w3.org/2001/XMLSchema-instance" xsi:schemaLocation="http://www.topografix.com/GPX/1/1 http://www.topografix.com/GPX/1/1/gpx.xsd" version="1.1" creator="VisuGPX - https://www.visugpx.com">
  <metadata>
    <name>83-DA-Figanières</name>
    <desc><![CDATA[83-DA-Figanières : Panisse - la Cassade
2025-12-7-GG]]></desc>
  </metadata>
  <trk>
    <name><![CDATA[2025-12-07--DA-Figanieres-GG]]></name>
    <extensions>
      <line xmlns="http://www.topografix.com/GPX/gpx_style/0/2">
        <width>4</width>
      </line>
    </extensions>
    <trkseg>
      <trkpt lat="43.56717" lon="6.49624">
        <ele>352.3</ele>
        <time>2025-12-07T09:33:42.000Z</time>
      </trkpt>
      <trkpt lat="43.56717" lon="6.49624">
        <ele>352.3</ele>
        <time>2025-12-07T09:33:43.000Z</time>
      </trkpt>
      <trkpt lat="43.56716" lon="6.49624">
        <ele>352.3</ele>
        <time>2025-12-07T09:33:50.000Z</time>
      </trkpt>
      <trkpt lat="43.56717" lon="6.49625">
        <ele>352.4</ele>
        <time>2025-12-07T09:34:23.000Z</time>
      </trkpt>
      <trkpt lat="43.56717" lon="6.49623">
        <ele>352.4</ele>
        <time>2025-12-07T09:35:32.000Z</time>
      </trkpt>
      <trkpt lat="43.56717" lon="6.49623">
        <ele>352.4</ele>
        <time>2025-12-07T09:35:32.000Z</time>
      </trkpt>
      <trkpt lat="43.56718" lon="6.49621">
        <ele>352.7</ele>
        <time>2025-12-07T09:36:13.000Z</time>
      </trkpt>
      <trkpt lat="43.56718" lon="6.49623">
        <ele>352.6</ele>
        <time>2025-12-07T09:36:28.000Z</time>
      </trkpt>
      <trkpt lat="43.56717" lon="6.49618">
        <ele>352.6</ele>
        <time>2025-12-07T09:37:32.000Z</time>
      </trkpt>
      <trkpt lat="43.56718" lon="6.49615">
        <ele>352.8</ele>
        <time>2025-12-07T09:38:22.000Z</time>
      </trkpt>
      <trkpt lat="43.56719" lon="6.49614">
        <ele>352.8</ele>
        <time>2025-12-07T09:38:32.000Z</time>
      </trkpt>
      <trkpt lat="43.56718" lon="6.49613">
        <ele>352.8</ele>
        <time>2025-12-07T09:39:15.000Z</time>
      </trkpt>
      <trkpt lat="43.56719" lon="6.49613">
        <ele>352.8</ele>
        <time>2025-12-07T09:39:27.000Z</time>
      </trkpt>
      <trkpt lat="43.56719" lon="6.49611">
        <ele>352.7</ele>
        <time>2025-12-07T09:41:24.000Z</time>
      </trkpt>
      <trkpt lat="43.56723" lon="6.49599">
        <ele>353</ele>
        <time>2025-12-07T09:41:47.000Z</time>
      </trkpt>
      <trkpt lat="43.56726" lon="6.49587">
        <ele>355.6</ele>
        <time>2025-12-07T09:42:07.000Z</time>
      </trkpt>
      <trkpt lat="43.56731" lon="6.49574">
        <ele>356.7</ele>
        <time>2025-12-07T09:42:15.000Z</time>
      </trkpt>
      <trkpt lat="43.56736" lon="6.49564">
        <ele>358.1</ele>
        <time>2025-12-07T09:42:23.000Z</time>
      </trkpt>
      <trkpt lat="43.56736" lon="6.49551">
        <ele>360</ele>
        <time>2025-12-07T09:42:38.000Z</time>
      </trkpt>
      <trkpt lat="43.56739" lon="6.49538">
        <ele>361.4</ele>
        <time>2025-12-07T09:42:47.000Z</time>
      </trkpt>
      <trkpt lat="43.56743" lon="6.49526">
        <ele>362.9</ele>
        <time>2025-12-07T09:42:58.000Z</time>
      </trkpt>
      <trkpt lat="43.56748" lon="6.49514">
        <ele>364.4</ele>
        <time>2025-12-07T09:43:09.000Z</time>
      </trkpt>
      <trkpt lat="43.56752" lon="6.49502">
        <ele>365.1</ele>
        <time>2025-12-07T09:43:19.000Z</time>
      </trkpt>
      <trkpt lat="43.56756" lon="6.49491">
        <ele>366.1</ele>
        <time>2025-12-07T09:43:30.000Z</time>
      </trkpt>
      <trkpt lat="43.56759" lon="6.49478">
        <ele>367.2</ele>
        <time>2025-12-07T09:43:40.000Z</time>
      </trkpt>
      <trkpt lat="43.56761" lon="6.49466">
        <ele>368.3</ele>
        <time>2025-12-07T09:43:50.000Z</time>
      </trkpt>
      <trkpt lat="43.56764" lon="6.49454">
        <ele>369.5</ele>
        <time>2025-12-07T09:44:03.000Z</time>
      </trkpt>
      <trkpt lat="43.56767" lon="6.49441">
        <ele>370.2</ele>
        <time>2025-12-07T09:44:14.000Z</time>
      </trkpt>
      <trkpt lat="43.56771" lon="6.49429">
        <ele>371</ele>
        <time>2025-12-07T09:44:25.000Z</time>
      </trkpt>
      <trkpt lat="43.56776" lon="6.49418">
        <ele>371.8</ele>
        <time>2025-12-07T09:44:37.000Z</time>
      </trkpt>
      <trkpt lat="43.56782" lon="6.49407">
        <ele>372.5</ele>
        <time>2025-12-07T09:44:47.000Z</time>
      </trkpt>
      <trkpt lat="43.56785" lon="6.49395">
        <ele>373.9</ele>
        <time>2025-12-07T09:45:17.000Z</time>
      </trkpt>
      <trkpt lat="43.5679" lon="6.49385">
        <ele>375.2</ele>
        <time>2025-12-07T09:45:30.000Z</time>
      </trkpt>
      <trkpt lat="43.56791" lon="6.49385">
        <ele>376.3</ele>
        <time>2025-12-07T09:45:57.000Z</time>
      </trkpt>
      <trkpt lat="43.56792" lon="6.49385">
        <ele>376.4</ele>
        <time>2025-12-07T09:46:12.000Z</time>
      </trkpt>
      <trkpt lat="43.56793" lon="6.49383">
        <ele>376.5</ele>
        <time>2025-12-07T09:46:31.000Z</time>
      </trkpt>
      <trkpt lat="43.56796" lon="6.49378">
        <ele>376.6</ele>
        <time>2025-12-07T09:46:37.000Z</time>
      </trkpt>
      <trkpt lat="43.56799" lon="6.49366">
        <ele>376.9</ele>
        <time>2025-12-07T09:46:48.000Z</time>
      </trkpt>
      <trkpt lat="43.56804" lon="6.49355">
        <ele>378</ele>
        <time>2025-12-07T09:47:01.000Z</time>
      </trkpt>
      <trkpt lat="43.56807" lon="6.49343">
        <ele>379.2</ele>
        <time>2025-12-07T09:47:12.000Z</time>
      </trkpt>
      <trkpt lat="43.56811" lon="6.49332">
        <ele>380.2</ele>
        <time>2025-12-07T09:47:24.000Z</time>
      </trkpt>
      <trkpt lat="43.56815" lon="6.4932">
        <ele>381.5</ele>
        <time>2025-12-07T09:47:37.000Z</time>
      </trkpt>
      <trkpt lat="43.56818" lon="6.49308">
        <ele>382.7</ele>
        <time>2025-12-07T09:47:48.000Z</time>
      </trkpt>
      <trkpt lat="43.56821" lon="6.49295">
        <ele>384.1</ele>
        <time>2025-12-07T09:47:58.000Z</time>
      </trkpt>
      <trkpt lat="43.56823" lon="6.49282">
        <ele>385.7</ele>
        <time>2025-12-07T09:48:12.000Z</time>
      </trkpt>
      <trkpt lat="43.56822" lon="6.4927">
        <ele>386.8</ele>
        <time>2025-12-07T09:48:25.000Z</time>
      </trkpt>
      <trkpt lat="43.56824" lon="6.49257">
        <ele>388</ele>
        <time>2025-12-07T09:48:37.000Z</time>
      </trkpt>
      <trkpt lat="43.56824" lon="6.49244">
        <ele>389.1</ele>
        <time>2025-12-07T09:48:49.000Z</time>
      </trkpt>
      <trkpt lat="43.56823" lon="6.49232">
        <ele>390.5</ele>
        <time>2025-12-07T09:49:15.000Z</time>
      </trkpt>
      <trkpt lat="43.56823" lon="6.49218">
        <ele>391.6</ele>
        <time>2025-12-07T09:49:30.000Z</time>
      </trkpt>
      <trkpt lat="43.56822" lon="6.49205">
        <ele>392.4</ele>
        <time>2025-12-07T09:49:42.000Z</time>
      </trkpt>
      <trkpt lat="43.56823" lon="6.49191">
        <ele>393.4</ele>
        <time>2025-12-07T09:49:56.000Z</time>
      </trkpt>
      <trkpt lat="43.56823" lon="6.49178">
        <ele>394.2</ele>
        <time>2025-12-07T09:50:08.000Z</time>
      </trkpt>
      <trkpt lat="43.5682" lon="6.49165">
        <ele>394.9</ele>
        <time>2025-12-07T09:50:18.000Z</time>
      </trkpt>
      <trkpt lat="43.56814" lon="6.49155">
        <ele>395.5</ele>
        <time>2025-12-07T09:50:26.000Z</time>
      </trkpt>
      <trkpt lat="43.56807" lon="6.49145">
        <ele>396.7</ele>
        <time>2025-12-07T09:50:38.000Z</time>
      </trkpt>
      <trkpt lat="43.56798" lon="6.4914">
        <ele>397.7</ele>
        <time>2025-12-07T09:50:48.000Z</time>
      </trkpt>
      <trkpt lat="43.5679" lon="6.49135">
        <ele>399.3</ele>
        <time>2025-12-07T09:51:01.000Z</time>
      </trkpt>
      <trkpt lat="43.56783" lon="6.49127">
        <ele>400.3</ele>
        <time>2025-12-07T09:51:16.000Z</time>
      </trkpt>
      <trkpt lat="43.56778" lon="6.49115">
        <ele>401.2</ele>
        <time>2025-12-07T09:51:49.000Z</time>
      </trkpt>
      <trkpt lat="43.56771" lon="6.49108">
        <ele>401.7</ele>
        <time>2025-12-07T09:51:59.000Z</time>
      </trkpt>
      <trkpt lat="43.5677" lon="6.49096">
        <ele>402.7</ele>
        <time>2025-12-07T09:52:10.000Z</time>
      </trkpt>
      <trkpt lat="43.56765" lon="6.49084">
        <ele>403.9</ele>
        <time>2025-12-07T09:52:20.000Z</time>
      </trkpt>
      <trkpt lat="43.56766" lon="6.49071">
        <ele>405.7</ele>
        <time>2025-12-07T09:52:34.000Z</time>
      </trkpt>
      <trkpt lat="43.5677" lon="6.49058">
        <ele>406.4</ele>
        <time>2025-12-07T09:52:44.000Z</time>
      </trkpt>
      <trkpt lat="43.56775" lon="6.49047">
        <ele>407.2</ele>
        <time>2025-12-07T09:52:58.000Z</time>
      </trkpt>
      <trkpt lat="43.56782" lon="6.49038">
        <ele>407.9</ele>
        <time>2025-12-07T09:53:11.000Z</time>
      </trkpt>
      <trkpt lat="43.5679" lon="6.49033">
        <ele>408.5</ele>
        <time>2025-12-07T09:53:20.000Z</time>
      </trkpt>
      <trkpt lat="43.56799" lon="6.4903">
        <ele>408.9</ele>
        <time>2025-12-07T09:53:31.000Z</time>
      </trkpt>
      <trkpt lat="43.56809" lon="6.49023">
        <ele>409.8</ele>
        <time>2025-12-07T09:53:47.000Z</time>
      </trkpt>
      <trkpt lat="43.56816" lon="6.49015">
        <ele>410.3</ele>
        <time>2025-12-07T09:53:56.000Z</time>
      </trkpt>
      <trkpt lat="43.56825" lon="6.49009">
        <ele>410.9</ele>
        <time>2025-12-07T09:54:07.000Z</time>
      </trkpt>
      <trkpt lat="43.56832" lon="6.49">
        <ele>411.7</ele>
        <time>2025-12-07T09:54:19.000Z</time>
      </trkpt>
      <trkpt lat="43.56838" lon="6.48992">
        <ele>412.3</ele>
        <time>2025-12-07T09:54:29.000Z</time>
      </trkpt>
      <trkpt lat="43.56843" lon="6.4898">
        <ele>413.2</ele>
        <time>2025-12-07T09:54:39.000Z</time>
      </trkpt>
      <trkpt lat="43.56846" lon="6.48968">
        <ele>414.7</ele>
        <time>2025-12-07T09:54:52.000Z</time>
      </trkpt>
      <trkpt lat="43.56849" lon="6.48956">
        <ele>416.4</ele>
        <time>2025-12-07T09:55:04.000Z</time>
      </trkpt>
      <trkpt lat="43.56849" lon="6.48943">
        <ele>417.7</ele>
        <time>2025-12-07T09:55:20.000Z</time>
      </trkpt>
      <trkpt lat="43.56853" lon="6.48931">
        <ele>419.3</ele>
        <time>2025-12-07T09:55:39.000Z</time>
      </trkpt>
      <trkpt lat="43.56855" lon="6.48918">
        <ele>420.1</ele>
        <time>2025-12-07T09:55:47.000Z</time>
      </trkpt>
      <trkpt lat="43.56857" lon="6.48913">
        <ele>421.4</ele>
        <time>2025-12-07T09:56:27.000Z</time>
      </trkpt>
      <trkpt lat="43.56853" lon="6.48909">
        <ele>421.5</ele>
        <time>2025-12-07T09:56:37.000Z</time>
      </trkpt>
      <trkpt lat="43.56853" lon="6.48909">
        <ele>421.6</ele>
        <time>2025-12-07T09:56:47.000Z</time>
      </trkpt>
      <trkpt lat="43.56853" lon="6.48909">
        <ele>421.8</ele>
        <time>2025-12-07T09:57:35.000Z</time>
      </trkpt>
      <trkpt lat="43.56853" lon="6.48909">
        <ele>421.9</ele>
        <time>2025-12-07T09:57:46.000Z</time>
      </trkpt>
      <trkpt lat="43.56851" lon="6.48904">
        <ele>421.9</ele>
        <time>2025-12-07T09:57:52.000Z</time>
      </trkpt>
      <trkpt lat="43.56848" lon="6.48892">
        <ele>422.1</ele>
        <time>2025-12-07T09:58:03.000Z</time>
      </trkpt>
      <trkpt lat="43.56842" lon="6.48881">
        <ele>423</ele>
        <time>2025-12-07T09:58:17.000Z</time>
      </trkpt>
      <trkpt lat="43.56836" lon="6.48872">
        <ele>423.9</ele>
        <time>2025-12-07T09:58:28.000Z</time>
      </trkpt>
      <trkpt lat="43.56828" lon="6.48866">
        <ele>425.2</ele>
        <time>2025-12-07T09:58:43.000Z</time>
      </trkpt>
      <trkpt lat="43.5682" lon="6.48858">
        <ele>426.8</ele>
        <time>2025-12-07T09:58:58.000Z</time>
      </trkpt>
      <trkpt lat="43.56814" lon="6.4885">
        <ele>427.6</ele>
        <time>2025-12-07T09:59:07.000Z</time>
      </trkpt>
      <trkpt lat="43.56805" lon="6.48843">
        <ele>429</ele>
        <time>2025-12-07T09:59:22.000Z</time>
      </trkpt>
      <trkpt lat="43.56795" lon="6.48842">
        <ele>430</ele>
        <time>2025-12-07T09:59:34.000Z</time>
      </trkpt>
      <trkpt lat="43.56788" lon="6.48835">
        <ele>431.1</ele>
        <time>2025-12-07T09:59:45.000Z</time>
      </trkpt>
      <trkpt lat="43.5678" lon="6.48827">
        <ele>432.9</ele>
        <time>2025-12-07T10:00:03.000Z</time>
      </trkpt>
      <trkpt lat="43.56771" lon="6.48823">
        <ele>433.9</ele>
        <time>2025-12-07T10:00:12.000Z</time>
      </trkpt>
      <trkpt lat="43.56762" lon="6.48822">
        <ele>434.8</ele>
        <time>2025-12-07T10:00:22.000Z</time>
      </trkpt>
      <trkpt lat="43.56753" lon="6.48821">
        <ele>436</ele>
        <time>2025-12-07T10:00:34.000Z</time>
      </trkpt>
      <trkpt lat="43.56743" lon="6.4882">
        <ele>437</ele>
        <time>2025-12-07T10:00:47.000Z</time>
      </trkpt>
      <trkpt lat="43.56735" lon="6.48815">
        <ele>438.4</ele>
        <time>2025-12-07T10:01:05.000Z</time>
      </trkpt>
      <trkpt lat="43.56726" lon="6.48811">
        <ele>439.3</ele>
        <time>2025-12-07T10:01:17.000Z</time>
      </trkpt>
      <trkpt lat="43.56717" lon="6.48808">
        <ele>440.4</ele>
        <time>2025-12-07T10:01:32.000Z</time>
      </trkpt>
      <trkpt lat="43.56708" lon="6.48803">
        <ele>441.4</ele>
        <time>2025-12-07T10:01:45.000Z</time>
      </trkpt>
      <trkpt lat="43.56699" lon="6.48804">
        <ele>443.3</ele>
        <time>2025-12-07T10:02:04.000Z</time>
      </trkpt>
      <trkpt lat="43.5669" lon="6.488">
        <ele>443.7</ele>
        <time>2025-12-07T10:02:11.000Z</time>
      </trkpt>
      <trkpt lat="43.56681" lon="6.48799">
        <ele>444.6</ele>
        <time>2025-12-07T10:02:22.000Z</time>
      </trkpt>
      <trkpt lat="43.56674" lon="6.48791">
        <ele>445.4</ele>
        <time>2025-12-07T10:02:34.000Z</time>
      </trkpt>
      <trkpt lat="43.56665" lon="6.48787">
        <ele>446.3</ele>
        <time>2025-12-07T10:02:47.000Z</time>
      </trkpt>
      <trkpt lat="43.56656" lon="6.48786">
        <ele>447.8</ele>
        <time>2025-12-07T10:03:01.000Z</time>
      </trkpt>
      <trkpt lat="43.56646" lon="6.48786">
        <ele>448.6</ele>
        <time>2025-12-07T10:03:10.000Z</time>
      </trkpt>
      <trkpt lat="43.56637" lon="6.48784">
        <ele>449.8</ele>
        <time>2025-12-07T10:03:26.000Z</time>
      </trkpt>
      <trkpt lat="43.56628" lon="6.48782">
        <ele>450.6</ele>
        <time>2025-12-07T10:03:39.000Z</time>
      </trkpt>
      <trkpt lat="43.56618" lon="6.48781">
        <ele>452.2</ele>
        <time>2025-12-07T10:04:09.000Z</time>
      </trkpt>
      <trkpt lat="43.56609" lon="6.4878">
        <ele>452.4</ele>
        <time>2025-12-07T10:04:18.000Z</time>
      </trkpt>
      <trkpt lat="43.566" lon="6.48776">
        <ele>453.1</ele>
        <time>2025-12-07T10:04:32.000Z</time>
      </trkpt>
      <trkpt lat="43.56591" lon="6.48773">
        <ele>453.9</ele>
        <time>2025-12-07T10:04:40.000Z</time>
      </trkpt>
      <trkpt lat="43.56583" lon="6.48766">
        <ele>455.5</ele>
        <time>2025-12-07T10:04:53.000Z</time>
      </trkpt>
      <trkpt lat="43.56573" lon="6.48769">
        <ele>456.3</ele>
        <time>2025-12-07T10:05:03.000Z</time>
      </trkpt>
      <trkpt lat="43.56563" lon="6.48771">
        <ele>457.4</ele>
        <time>2025-12-07T10:05:20.000Z</time>
      </trkpt>
      <trkpt lat="43.56564" lon="6.48773">
        <ele>457.6</ele>
        <time>2025-12-07T10:05:33.000Z</time>
      </trkpt>
      <trkpt lat="43.56563" lon="6.48773">
        <ele>457.6</ele>
        <time>2025-12-07T10:05:34.000Z</time>
      </trkpt>
      <trkpt lat="43.56554" lon="6.48771">
        <ele>457.8</ele>
        <time>2025-12-07T10:05:47.000Z</time>
      </trkpt>
      <trkpt lat="43.56544" lon="6.48769">
        <ele>458.4</ele>
        <time>2025-12-07T10:06:00.000Z</time>
      </trkpt>
      <trkpt lat="43.56535" lon="6.48766">
        <ele>459.4</ele>
        <time>2025-12-07T10:06:12.000Z</time>
      </trkpt>
      <trkpt lat="43.56527" lon="6.4876">
        <ele>460.6</ele>
        <time>2025-12-07T10:06:28.000Z</time>
      </trkpt>
      <trkpt lat="43.56519" lon="6.48755">
        <ele>461.3</ele>
        <time>2025-12-07T10:06:39.000Z</time>
      </trkpt>
      <trkpt lat="43.56511" lon="6.48747">
        <ele>462.8</ele>
        <time>2025-12-07T10:07:02.000Z</time>
      </trkpt>
      <trkpt lat="43.56505" lon="6.48738">
        <ele>463.5</ele>
        <time>2025-12-07T10:07:15.000Z</time>
      </trkpt>
      <trkpt lat="43.56505" lon="6.48731">
        <ele>464.9</ele>
        <time>2025-12-07T10:07:52.000Z</time>
      </trkpt>
      <trkpt lat="43.565" lon="6.48731">
        <ele>465.1</ele>
        <time>2025-12-07T10:08:42.000Z</time>
      </trkpt>
      <trkpt lat="43.56501" lon="6.48733">
        <ele>465.1</ele>
        <time>2025-12-07T10:09:01.000Z</time>
      </trkpt>
      <trkpt lat="43.56502" lon="6.48734">
        <ele>465</ele>
        <time>2025-12-07T10:09:11.000Z</time>
      </trkpt>
      <trkpt lat="43.56502" lon="6.48734">
        <ele>465</ele>
        <time>2025-12-07T10:09:22.000Z</time>
      </trkpt>
      <trkpt lat="43.56499" lon="6.48732">
        <ele>464.9</ele>
        <time>2025-12-07T10:10:17.000Z</time>
      </trkpt>
      <trkpt lat="43.56499" lon="6.48732">
        <ele>465</ele>
        <time>2025-12-07T10:10:24.000Z</time>
      </trkpt>
      <trkpt lat="43.56496" lon="6.48728">
        <ele>465</ele>
        <time>2025-12-07T10:11:26.000Z</time>
      </trkpt>
      <trkpt lat="43.56491" lon="6.48716">
        <ele>465</ele>
        <time>2025-12-07T10:11:36.000Z</time>
      </trkpt>
      <trkpt lat="43.56485" lon="6.48706">
        <ele>465</ele>
        <time>2025-12-07T10:11:45.000Z</time>
      </trkpt>
      <trkpt lat="43.5648" lon="6.48695">
        <ele>465.1</ele>
        <time>2025-12-07T10:11:56.000Z</time>
      </trkpt>
      <trkpt lat="43.56475" lon="6.48683">
        <ele>465.1</ele>
        <time>2025-12-07T10:12:07.000Z</time>
      </trkpt>
      <trkpt lat="43.5647" lon="6.48672">
        <ele>465.2</ele>
        <time>2025-12-07T10:12:17.000Z</time>
      </trkpt>
      <trkpt lat="43.56466" lon="6.48661">
        <ele>465.4</ele>
        <time>2025-12-07T10:12:27.000Z</time>
      </trkpt>
      <trkpt lat="43.56463" lon="6.48648">
        <ele>465.8</ele>
        <time>2025-12-07T10:12:41.000Z</time>
      </trkpt>
      <trkpt lat="43.56458" lon="6.48637">
        <ele>466.1</ele>
        <time>2025-12-07T10:12:54.000Z</time>
      </trkpt>
      <trkpt lat="43.56455" lon="6.48625">
        <ele>466.6</ele>
        <time>2025-12-07T10:13:06.000Z</time>
      </trkpt>
      <trkpt lat="43.56449" lon="6.48615">
        <ele>467.1</ele>
        <time>2025-12-07T10:13:16.000Z</time>
      </trkpt>
      <trkpt lat="43.56443" lon="6.48603">
        <ele>467.6</ele>
        <time>2025-12-07T10:13:27.000Z</time>
      </trkpt>
      <trkpt lat="43.56436" lon="6.48595">
        <ele>467.6</ele>
        <time>2025-12-07T10:13:36.000Z</time>
      </trkpt>
      <trkpt lat="43.56429" lon="6.48587">
        <ele>467.5</ele>
        <time>2025-12-07T10:13:46.000Z</time>
      </trkpt>
      <trkpt lat="43.56421" lon="6.4858">
        <ele>467.2</ele>
        <time>2025-12-07T10:13:55.000Z</time>
      </trkpt>
      <trkpt lat="43.56412" lon="6.48577">
        <ele>466.7</ele>
        <time>2025-12-07T10:14:04.000Z</time>
      </trkpt>
      <trkpt lat="43.56403" lon="6.48573">
        <ele>466</ele>
        <time>2025-12-07T10:14:18.000Z</time>
      </trkpt>
      <trkpt lat="43.56394" lon="6.48569">
        <ele>465.8</ele>
        <time>2025-12-07T10:14:26.000Z</time>
      </trkpt>
      <trkpt lat="43.56385" lon="6.48567">
        <ele>465.5</ele>
        <time>2025-12-07T10:14:36.000Z</time>
      </trkpt>
      <trkpt lat="43.56376" lon="6.48562">
        <ele>465.3</ele>
        <time>2025-12-07T10:14:45.000Z</time>
      </trkpt>
      <trkpt lat="43.56366" lon="6.4856">
        <ele>465.2</ele>
        <time>2025-12-07T10:14:53.000Z</time>
      </trkpt>
      <trkpt lat="43.56357" lon="6.48559">
        <ele>465.2</ele>
        <time>2025-12-07T10:15:03.000Z</time>
      </trkpt>
      <trkpt lat="43.56347" lon="6.48555">
        <ele>465.2</ele>
        <time>2025-12-07T10:15:12.000Z</time>
      </trkpt>
      <trkpt lat="43.56338" lon="6.48553">
        <ele>465.3</ele>
        <time>2025-12-07T10:15:23.000Z</time>
      </trkpt>
      <trkpt lat="43.56328" lon="6.48551">
        <ele>465.4</ele>
        <time>2025-12-07T10:15:33.000Z</time>
      </trkpt>
      <trkpt lat="43.56319" lon="6.48548">
        <ele>465.6</ele>
        <time>2025-12-07T10:15:44.000Z</time>
      </trkpt>
      <trkpt lat="43.5631" lon="6.48542">
        <ele>466.4</ele>
        <time>2025-12-07T10:15:57.000Z</time>
      </trkpt>
      <trkpt lat="43.56302" lon="6.48535">
        <ele>467.3</ele>
        <time>2025-12-07T10:16:10.000Z</time>
      </trkpt>
      <trkpt lat="43.56293" lon="6.48529">
        <ele>467.9</ele>
        <time>2025-12-07T10:16:21.000Z</time>
      </trkpt>
      <trkpt lat="43.56284" lon="6.48524">
        <ele>468.2</ele>
        <time>2025-12-07T10:16:32.000Z</time>
      </trkpt>
      <trkpt lat="43.56276" lon="6.48517">
        <ele>468.1</ele>
        <time>2025-12-07T10:16:41.000Z</time>
      </trkpt>
      <trkpt lat="43.56269" lon="6.48509">
        <ele>467.8</ele>
        <time>2025-12-07T10:16:53.000Z</time>
      </trkpt>
      <trkpt lat="43.56262" lon="6.48499">
        <ele>466.8</ele>
        <time>2025-12-07T10:17:07.000Z</time>
      </trkpt>
      <trkpt lat="43.56257" lon="6.48488">
        <ele>465.5</ele>
        <time>2025-12-07T10:17:22.000Z</time>
      </trkpt>
      <trkpt lat="43.56253" lon="6.48476">
        <ele>464.3</ele>
        <time>2025-12-07T10:17:35.000Z</time>
      </trkpt>
      <trkpt lat="43.56248" lon="6.48466">
        <ele>463.7</ele>
        <time>2025-12-07T10:17:43.000Z</time>
      </trkpt>
      <trkpt lat="43.56242" lon="6.48456">
        <ele>463.3</ele>
        <time>2025-12-07T10:17:52.000Z</time>
      </trkpt>
      <trkpt lat="43.56234" lon="6.48449">
        <ele>463</ele>
        <time>2025-12-07T10:18:00.000Z</time>
      </trkpt>
      <trkpt lat="43.56226" lon="6.48442">
        <ele>462.9</ele>
        <time>2025-12-07T10:18:08.000Z</time>
      </trkpt>
      <trkpt lat="43.56218" lon="6.48436">
        <ele>462.8</ele>
        <time>2025-12-07T10:18:18.000Z</time>
      </trkpt>
      <trkpt lat="43.56211" lon="6.48428">
        <ele>462.8</ele>
        <time>2025-12-07T10:18:27.000Z</time>
      </trkpt>
      <trkpt lat="43.56203" lon="6.48419">
        <ele>462.8</ele>
        <time>2025-12-07T10:18:39.000Z</time>
      </trkpt>
      <trkpt lat="43.56197" lon="6.4841">
        <ele>463</ele>
        <time>2025-12-07T10:18:53.000Z</time>
      </trkpt>
      <trkpt lat="43.56189" lon="6.48404">
        <ele>463.5</ele>
        <time>2025-12-07T10:19:03.000Z</time>
      </trkpt>
      <trkpt lat="43.5618" lon="6.48403">
        <ele>464.4</ele>
        <time>2025-12-07T10:19:13.000Z</time>
      </trkpt>
      <trkpt lat="43.5617" lon="6.48403">
        <ele>465.7</ele>
        <time>2025-12-07T10:19:24.000Z</time>
      </trkpt>
      <trkpt lat="43.56161" lon="6.48407">
        <ele>467.3</ele>
        <time>2025-12-07T10:19:38.000Z</time>
      </trkpt>
      <trkpt lat="43.56153" lon="6.48412">
        <ele>468</ele>
        <time>2025-12-07T10:19:48.000Z</time>
      </trkpt>
      <trkpt lat="43.56144" lon="6.48416">
        <ele>468.9</ele>
        <time>2025-12-07T10:20:00.000Z</time>
      </trkpt>
      <trkpt lat="43.56135" lon="6.48421">
        <ele>469.9</ele>
        <time>2025-12-07T10:20:13.000Z</time>
      </trkpt>
      <trkpt lat="43.56128" lon="6.48429">
        <ele>471</ele>
        <time>2025-12-07T10:20:26.000Z</time>
      </trkpt>
      <trkpt lat="43.56119" lon="6.48434">
        <ele>471.7</ele>
        <time>2025-12-07T10:20:39.000Z</time>
      </trkpt>
      <trkpt lat="43.56115" lon="6.48434">
        <ele>473.1</ele>
        <time>2025-12-07T10:21:28.000Z</time>
      </trkpt>
      <trkpt lat="43.56112" lon="6.48443">
        <ele>472.9</ele>
        <time>2025-12-07T10:21:52.000Z</time>
      </trkpt>
      <trkpt lat="43.56105" lon="6.48446">
        <ele>472.5</ele>
        <time>2025-12-07T10:22:39.000Z</time>
      </trkpt>
      <trkpt lat="43.56105" lon="6.48447">
        <ele>472.6</ele>
        <time>2025-12-07T10:23:12.000Z</time>
      </trkpt>
      <trkpt lat="43.56105" lon="6.48447">
        <ele>472.6</ele>
        <time>2025-12-07T10:23:20.000Z</time>
      </trkpt>
      <trkpt lat="43.56105" lon="6.48448">
        <ele>472.7</ele>
        <time>2025-12-07T10:23:42.000Z</time>
      </trkpt>
      <trkpt lat="43.56105" lon="6.48448">
        <ele>472.7</ele>
        <time>2025-12-07T10:23:52.000Z</time>
      </trkpt>
      <trkpt lat="43.56106" lon="6.48446">
        <ele>471.8</ele>
        <time>2025-12-07T10:25:16.000Z</time>
      </trkpt>
      <trkpt lat="43.56106" lon="6.48446">
        <ele>471.7</ele>
        <time>2025-12-07T10:25:28.000Z</time>
      </trkpt>
      <trkpt lat="43.56105" lon="6.48442">
        <ele>471.2</ele>
        <time>2025-12-07T10:25:55.000Z</time>
      </trkpt>
      <trkpt lat="43.56108" lon="6.4843">
        <ele>471</ele>
        <time>2025-12-07T10:26:08.000Z</time>
      </trkpt>
      <trkpt lat="43.56112" lon="6.48418">
        <ele>471</ele>
        <time>2025-12-07T10:26:19.000Z</time>
      </trkpt>
      <trkpt lat="43.56115" lon="6.48406">
        <ele>470.9</ele>
        <time>2025-12-07T10:26:29.000Z</time>
      </trkpt>
      <trkpt lat="43.56119" lon="6.48394">
        <ele>470.7</ele>
        <time>2025-12-07T10:26:38.000Z</time>
      </trkpt>
      <trkpt lat="43.56123" lon="6.48382">
        <ele>470.4</ele>
        <time>2025-12-07T10:26:48.000Z</time>
      </trkpt>
      <trkpt lat="43.56126" lon="6.4837">
        <ele>469.8</ele>
        <time>2025-12-07T10:26:58.000Z</time>
      </trkpt>
      <trkpt lat="43.56129" lon="6.48358">
        <ele>469.3</ele>
        <time>2025-12-07T10:27:09.000Z</time>
      </trkpt>
      <trkpt lat="43.56134" lon="6.48346">
        <ele>469</ele>
        <time>2025-12-07T10:27:21.000Z</time>
      </trkpt>
      <trkpt lat="43.56137" lon="6.48334">
        <ele>468.8</ele>
        <time>2025-12-07T10:27:37.000Z</time>
      </trkpt>
      <trkpt lat="43.56141" lon="6.48322">
        <ele>468.8</ele>
        <time>2025-12-07T10:27:47.000Z</time>
      </trkpt>
      <trkpt lat="43.56146" lon="6.48311">
        <ele>469</ele>
        <time>2025-12-07T10:27:58.000Z</time>
      </trkpt>
      <trkpt lat="43.56152" lon="6.48301">
        <ele>469.3</ele>
        <time>2025-12-07T10:28:08.000Z</time>
      </trkpt>
      <trkpt lat="43.56156" lon="6.48289">
        <ele>470.1</ele>
        <time>2025-12-07T10:28:21.000Z</time>
      </trkpt>
      <trkpt lat="43.5616" lon="6.48278">
        <ele>471.3</ele>
        <time>2025-12-07T10:28:35.000Z</time>
      </trkpt>
      <trkpt lat="43.56164" lon="6.48266">
        <ele>472.9</ele>
        <time>2025-12-07T10:29:02.000Z</time>
      </trkpt>
      <trkpt lat="43.56168" lon="6.48254">
        <ele>474</ele>
        <time>2025-12-07T10:29:16.000Z</time>
      </trkpt>
      <trkpt lat="43.56171" lon="6.48242">
        <ele>475.7</ele>
        <time>2025-12-07T10:29:30.000Z</time>
      </trkpt>
      <trkpt lat="43.56173" lon="6.48229">
        <ele>477.4</ele>
        <time>2025-12-07T10:29:43.000Z</time>
      </trkpt>
      <trkpt lat="43.56177" lon="6.48217">
        <ele>478.6</ele>
        <time>2025-12-07T10:29:56.000Z</time>
      </trkpt>
      <trkpt lat="43.5618" lon="6.48205">
        <ele>479.6</ele>
        <time>2025-12-07T10:30:09.000Z</time>
      </trkpt>
      <trkpt lat="43.56184" lon="6.48194">
        <ele>480.4</ele>
        <time>2025-12-07T10:30:21.000Z</time>
      </trkpt>
      <trkpt lat="43.56188" lon="6.48182">
        <ele>481.3</ele>
        <time>2025-12-07T10:30:35.000Z</time>
      </trkpt>
      <trkpt lat="43.56191" lon="6.4817">
        <ele>482</ele>
        <time>2025-12-07T10:30:47.000Z</time>
      </trkpt>
      <trkpt lat="43.56193" lon="6.48158">
        <ele>483.7</ele>
        <time>2025-12-07T10:31:12.000Z</time>
      </trkpt>
      <trkpt lat="43.56193" lon="6.48156">
        <ele>483.8</ele>
        <time>2025-12-07T10:31:14.000Z</time>
      </trkpt>
      <trkpt lat="43.56196" lon="6.48144">
        <ele>484.7</ele>
        <time>2025-12-07T10:31:30.000Z</time>
      </trkpt>
      <trkpt lat="43.56199" lon="6.48131">
        <ele>486.2</ele>
        <time>2025-12-07T10:32:03.000Z</time>
      </trkpt>
      <trkpt lat="43.56204" lon="6.4812">
        <ele>487.4</ele>
        <time>2025-12-07T10:32:16.000Z</time>
      </trkpt>
      <trkpt lat="43.56211" lon="6.48111">
        <ele>488.8</ele>
        <time>2025-12-07T10:32:28.000Z</time>
      </trkpt>
      <trkpt lat="43.56217" lon="6.48103">
        <ele>490.4</ele>
        <time>2025-12-07T10:32:40.000Z</time>
      </trkpt>
      <trkpt lat="43.56224" lon="6.48094">
        <ele>491.7</ele>
        <time>2025-12-07T10:32:55.000Z</time>
      </trkpt>
      <trkpt lat="43.56229" lon="6.48083">
        <ele>492.6</ele>
        <time>2025-12-07T10:33:08.000Z</time>
      </trkpt>
      <trkpt lat="43.56232" lon="6.48071">
        <ele>493.5</ele>
        <time>2025-12-07T10:33:20.000Z</time>
      </trkpt>
      <trkpt lat="43.56235" lon="6.48059">
        <ele>494.2</ele>
        <time>2025-12-07T10:33:31.000Z</time>
      </trkpt>
      <trkpt lat="43.56239" lon="6.48047">
        <ele>494.7</ele>
        <time>2025-12-07T10:33:43.000Z</time>
      </trkpt>
      <trkpt lat="43.56242" lon="6.48034">
        <ele>495</ele>
        <time>2025-12-07T10:33:55.000Z</time>
      </trkpt>
      <trkpt lat="43.56245" lon="6.48022">
        <ele>495.2</ele>
        <time>2025-12-07T10:34:08.000Z</time>
      </trkpt>
      <trkpt lat="43.56245" lon="6.48009">
        <ele>495.8</ele>
        <time>2025-12-07T10:34:22.000Z</time>
      </trkpt>
      <trkpt lat="43.56245" lon="6.47996">
        <ele>496.7</ele>
        <time>2025-12-07T10:34:34.000Z</time>
      </trkpt>
      <trkpt lat="43.56244" lon="6.47983">
        <ele>497.5</ele>
        <time>2025-12-07T10:34:46.000Z</time>
      </trkpt>
      <trkpt lat="43.56242" lon="6.4797">
        <ele>498.1</ele>
        <time>2025-12-07T10:34:59.000Z</time>
      </trkpt>
      <trkpt lat="43.56241" lon="6.47957">
        <ele>498.6</ele>
        <time>2025-12-07T10:35:12.000Z</time>
      </trkpt>
      <trkpt lat="43.5624" lon="6.47945">
        <ele>499.2</ele>
        <time>2025-12-07T10:35:24.000Z</time>
      </trkpt>
      <trkpt lat="43.56235" lon="6.47933">
        <ele>499.8</ele>
        <time>2025-12-07T10:35:36.000Z</time>
      </trkpt>
      <trkpt lat="43.56231" lon="6.47922">
        <ele>500.2</ele>
        <time>2025-12-07T10:35:54.000Z</time>
      </trkpt>
      <trkpt lat="43.5623" lon="6.47909">
        <ele>500.2</ele>
        <time>2025-12-07T10:36:07.000Z</time>
      </trkpt>
      <trkpt lat="43.56228" lon="6.47896">
        <ele>500.1</ele>
        <time>2025-12-07T10:36:19.000Z</time>
      </trkpt>
      <trkpt lat="43.56226" lon="6.47883">
        <ele>500.2</ele>
        <time>2025-12-07T10:36:31.000Z</time>
      </trkpt>
      <trkpt lat="43.56229" lon="6.4787">
        <ele>500.8</ele>
        <time>2025-12-07T10:36:43.000Z</time>
      </trkpt>
      <trkpt lat="43.56227" lon="6.47858">
        <ele>501.9</ele>
        <time>2025-12-07T10:36:55.000Z</time>
      </trkpt>
      <trkpt lat="43.56224" lon="6.47845">
        <ele>502.7</ele>
        <time>2025-12-07T10:37:07.000Z</time>
      </trkpt>
      <trkpt lat="43.56221" lon="6.47833">
        <ele>503.8</ele>
        <time>2025-12-07T10:37:19.000Z</time>
      </trkpt>
      <trkpt lat="43.56218" lon="6.47821">
        <ele>505</ele>
        <time>2025-12-07T10:37:32.000Z</time>
      </trkpt>
      <trkpt lat="43.56218" lon="6.47808">
        <ele>506.4</ele>
        <time>2025-12-07T10:37:44.000Z</time>
      </trkpt>
      <trkpt lat="43.56219" lon="6.47796">
        <ele>507.4</ele>
        <time>2025-12-07T10:37:57.000Z</time>
      </trkpt>
      <trkpt lat="43.56221" lon="6.47782">
        <ele>509.1</ele>
        <time>2025-12-07T10:38:22.000Z</time>
      </trkpt>
      <trkpt lat="43.56222" lon="6.47779">
        <ele>509.6</ele>
        <time>2025-12-07T10:38:41.000Z</time>
      </trkpt>
      <trkpt lat="43.56223" lon="6.47778">
        <ele>509.6</ele>
        <time>2025-12-07T10:38:42.000Z</time>
      </trkpt>
      <trkpt lat="43.56222" lon="6.47778">
        <ele>509.7</ele>
        <time>2025-12-07T10:38:54.000Z</time>
      </trkpt>
      <trkpt lat="43.56222" lon="6.47777">
        <ele>509.7</ele>
        <time>2025-12-07T10:38:59.000Z</time>
      </trkpt>
      <trkpt lat="43.56222" lon="6.47777">
        <ele>509.8</ele>
        <time>2025-12-07T10:39:19.000Z</time>
      </trkpt>
      <trkpt lat="43.56222" lon="6.47776">
        <ele>509.7</ele>
        <time>2025-12-07T10:39:49.000Z</time>
      </trkpt>
      <trkpt lat="43.56222" lon="6.47776">
        <ele>509.7</ele>
        <time>2025-12-07T10:40:00.000Z</time>
      </trkpt>
      <trkpt lat="43.56222" lon="6.47776">
        <ele>509.7</ele>
        <time>2025-12-07T10:40:07.000Z</time>
      </trkpt>
      <trkpt lat="43.56222" lon="6.47776">
        <ele>509.7</ele>
        <time>2025-12-07T10:40:14.000Z</time>
      </trkpt>
      <trkpt lat="43.56222" lon="6.47776">
        <ele>509.4</ele>
        <time>2025-12-07T10:40:39.000Z</time>
      </trkpt>
      <trkpt lat="43.56223" lon="6.47763">
        <ele>508.8</ele>
        <time>2025-12-07T10:40:57.000Z</time>
      </trkpt>
      <trkpt lat="43.56225" lon="6.4775">
        <ele>508.7</ele>
        <time>2025-12-07T10:41:09.000Z</time>
      </trkpt>
      <trkpt lat="43.56224" lon="6.47737">
        <ele>508.5</ele>
        <time>2025-12-07T10:41:19.000Z</time>
      </trkpt>
      <trkpt lat="43.56222" lon="6.47724">
        <ele>508.3</ele>
        <time>2025-12-07T10:41:30.000Z</time>
      </trkpt>
      <trkpt lat="43.5622" lon="6.47711">
        <ele>508</ele>
        <time>2025-12-07T10:41:41.000Z</time>
      </trkpt>
      <trkpt lat="43.56216" lon="6.47698">
        <ele>507.9</ele>
        <time>2025-12-07T10:41:52.000Z</time>
      </trkpt>
      <trkpt lat="43.56212" lon="6.47686">
        <ele>507.8</ele>
        <time>2025-12-07T10:42:02.000Z</time>
      </trkpt>
      <trkpt lat="43.56208" lon="6.47675">
        <ele>507.8</ele>
        <time>2025-12-07T10:42:12.000Z</time>
      </trkpt>
      <trkpt lat="43.56205" lon="6.47663">
        <ele>507.8</ele>
        <time>2025-12-07T10:42:23.000Z</time>
      </trkpt>
      <trkpt lat="43.56202" lon="6.47651">
        <ele>507.9</ele>
        <time>2025-12-07T10:42:34.000Z</time>
      </trkpt>
      <trkpt lat="43.562" lon="6.47638">
        <ele>508.2</ele>
        <time>2025-12-07T10:42:45.000Z</time>
      </trkpt>
      <trkpt lat="43.56197" lon="6.47626">
        <ele>509.2</ele>
        <time>2025-12-07T10:43:10.000Z</time>
      </trkpt>
      <trkpt lat="43.56193" lon="6.47615">
        <ele>509.5</ele>
        <time>2025-12-07T10:43:21.000Z</time>
      </trkpt>
      <trkpt lat="43.5619" lon="6.47603">
        <ele>509.9</ele>
        <time>2025-12-07T10:43:31.000Z</time>
      </trkpt>
      <trkpt lat="43.56184" lon="6.47593">
        <ele>510.2</ele>
        <time>2025-12-07T10:43:43.000Z</time>
      </trkpt>
      <trkpt lat="43.56176" lon="6.47585">
        <ele>510.6</ele>
        <time>2025-12-07T10:43:54.000Z</time>
      </trkpt>
      <trkpt lat="43.56168" lon="6.47577">
        <ele>511.7</ele>
        <time>2025-12-07T10:44:05.000Z</time>
      </trkpt>
      <trkpt lat="43.56159" lon="6.47572">
        <ele>512.5</ele>
        <time>2025-12-07T10:44:18.000Z</time>
      </trkpt>
      <trkpt lat="43.56151" lon="6.47564">
        <ele>513</ele>
        <time>2025-12-07T10:44:32.000Z</time>
      </trkpt>
      <trkpt lat="43.56149" lon="6.47563">
        <ele>513.6</ele>
        <time>2025-12-07T10:44:50.000Z</time>
      </trkpt>
      <trkpt lat="43.56148" lon="6.47563">
        <ele>513.6</ele>
        <time>2025-12-07T10:44:52.000Z</time>
      </trkpt>
      <trkpt lat="43.56139" lon="6.47564">
        <ele>513.6</ele>
        <time>2025-12-07T10:45:04.000Z</time>
      </trkpt>
      <trkpt lat="43.5613" lon="6.47565">
        <ele>513.7</ele>
        <time>2025-12-07T10:45:11.000Z</time>
      </trkpt>
      <trkpt lat="43.56121" lon="6.47569">
        <ele>513.9</ele>
        <time>2025-12-07T10:45:20.000Z</time>
      </trkpt>
      <trkpt lat="43.56111" lon="6.47569">
        <ele>514</ele>
        <time>2025-12-07T10:45:32.000Z</time>
      </trkpt>
      <trkpt lat="43.56103" lon="6.47573">
        <ele>514.4</ele>
        <time>2025-12-07T10:45:43.000Z</time>
      </trkpt>
      <trkpt lat="43.56094" lon="6.47575">
        <ele>515</ele>
        <time>2025-12-07T10:45:55.000Z</time>
      </trkpt>
      <trkpt lat="43.56084" lon="6.47575">
        <ele>515.5</ele>
        <time>2025-12-07T10:46:05.000Z</time>
      </trkpt>
      <trkpt lat="43.56074" lon="6.47572">
        <ele>516.1</ele>
        <time>2025-12-07T10:46:15.000Z</time>
      </trkpt>
      <trkpt lat="43.56065" lon="6.47568">
        <ele>516.5</ele>
        <time>2025-12-07T10:46:25.000Z</time>
      </trkpt>
      <trkpt lat="43.56057" lon="6.47558">
        <ele>516.8</ele>
        <time>2025-12-07T10:46:36.000Z</time>
      </trkpt>
      <trkpt lat="43.56053" lon="6.47546">
        <ele>517.4</ele>
        <time>2025-12-07T10:46:48.000Z</time>
      </trkpt>
      <trkpt lat="43.56048" lon="6.47535">
        <ele>518.3</ele>
        <time>2025-12-07T10:47:00.000Z</time>
      </trkpt>
      <trkpt lat="43.56042" lon="6.47525">
        <ele>519.1</ele>
        <time>2025-12-07T10:47:11.000Z</time>
      </trkpt>
      <trkpt lat="43.56036" lon="6.47516">
        <ele>519.8</ele>
        <time>2025-12-07T10:47:21.000Z</time>
      </trkpt>
      <trkpt lat="43.56032" lon="6.47504">
        <ele>520.5</ele>
        <time>2025-12-07T10:47:32.000Z</time>
      </trkpt>
      <trkpt lat="43.56028" lon="6.47492">
        <ele>521</ele>
        <time>2025-12-07T10:47:44.000Z</time>
      </trkpt>
      <trkpt lat="43.56023" lon="6.4748">
        <ele>521.4</ele>
        <time>2025-12-07T10:47:55.000Z</time>
      </trkpt>
      <trkpt lat="43.56021" lon="6.47468">
        <ele>522.3</ele>
        <time>2025-12-07T10:48:06.000Z</time>
      </trkpt>
      <trkpt lat="43.56017" lon="6.47455">
        <ele>523.5</ele>
        <time>2025-12-07T10:48:18.000Z</time>
      </trkpt>
      <trkpt lat="43.56015" lon="6.47442">
        <ele>524.5</ele>
        <time>2025-12-07T10:48:30.000Z</time>
      </trkpt>
      <trkpt lat="43.56013" lon="6.4743">
        <ele>525.6</ele>
        <time>2025-12-07T10:48:47.000Z</time>
      </trkpt>
      <trkpt lat="43.56012" lon="6.47417">
        <ele>526.1</ele>
        <time>2025-12-07T10:48:58.000Z</time>
      </trkpt>
      <trkpt lat="43.56011" lon="6.47412">
        <ele>526.7</ele>
        <time>2025-12-07T10:49:18.000Z</time>
      </trkpt>
      <trkpt lat="43.5601" lon="6.47413">
        <ele>527</ele>
        <time>2025-12-07T10:49:32.000Z</time>
      </trkpt>
      <trkpt lat="43.56009" lon="6.474">
        <ele>527.4</ele>
        <time>2025-12-07T10:49:55.000Z</time>
      </trkpt>
      <trkpt lat="43.56005" lon="6.47388">
        <ele>527.8</ele>
        <time>2025-12-07T10:50:06.000Z</time>
      </trkpt>
      <trkpt lat="43.56001" lon="6.47378">
        <ele>528.3</ele>
        <time>2025-12-07T10:50:17.000Z</time>
      </trkpt>
      <trkpt lat="43.55994" lon="6.47368">
        <ele>528.8</ele>
        <time>2025-12-07T10:50:27.000Z</time>
      </trkpt>
      <trkpt lat="43.55987" lon="6.47358">
        <ele>529.3</ele>
        <time>2025-12-07T10:50:38.000Z</time>
      </trkpt>
      <trkpt lat="43.55983" lon="6.47345">
        <ele>529.9</ele>
        <time>2025-12-07T10:50:51.000Z</time>
      </trkpt>
      <trkpt lat="43.55984" lon="6.47333">
        <ele>530.3</ele>
        <time>2025-12-07T10:51:02.000Z</time>
      </trkpt>
      <trkpt lat="43.55981" lon="6.47321">
        <ele>531.1</ele>
        <time>2025-12-07T10:51:15.000Z</time>
      </trkpt>
      <trkpt lat="43.55977" lon="6.47309">
        <ele>531.8</ele>
        <time>2025-12-07T10:51:34.000Z</time>
      </trkpt>
      <trkpt lat="43.55973" lon="6.47298">
        <ele>532.2</ele>
        <time>2025-12-07T10:51:58.000Z</time>
      </trkpt>
      <trkpt lat="43.55969" lon="6.47286">
        <ele>532.1</ele>
        <time>2025-12-07T10:52:11.000Z</time>
      </trkpt>
      <trkpt lat="43.55969" lon="6.47273">
        <ele>531.6</ele>
        <time>2025-12-07T10:52:23.000Z</time>
      </trkpt>
      <trkpt lat="43.55971" lon="6.4726">
        <ele>530.2</ele>
        <time>2025-12-07T10:53:11.000Z</time>
      </trkpt>
      <trkpt lat="43.55963" lon="6.47253">
        <ele>529.8</ele>
        <time>2025-12-07T10:53:57.000Z</time>
      </trkpt>
      <trkpt lat="43.55963" lon="6.47253">
        <ele>529.7</ele>
        <time>2025-12-07T10:54:12.000Z</time>
      </trkpt>
      <trkpt lat="43.55967" lon="6.4726">
        <ele>529.7</ele>
        <time>2025-12-07T10:54:25.000Z</time>
      </trkpt>
      <trkpt lat="43.5597" lon="6.47268">
        <ele>530.2</ele>
        <time>2025-12-07T10:55:12.000Z</time>
      </trkpt>
      <trkpt lat="43.55969" lon="6.47269">
        <ele>530.1</ele>
        <time>2025-12-07T10:56:12.000Z</time>
      </trkpt>
      <trkpt lat="43.55969" lon="6.47269">
        <ele>530.2</ele>
        <time>2025-12-07T10:56:29.000Z</time>
      </trkpt>
      <trkpt lat="43.55969" lon="6.47269">
        <ele>530.3</ele>
        <time>2025-12-07T10:56:42.000Z</time>
      </trkpt>
      <trkpt lat="43.55969" lon="6.47269">
        <ele>530.1</ele>
        <time>2025-12-07T10:57:09.000Z</time>
      </trkpt>
      <trkpt lat="43.55969" lon="6.47268">
        <ele>529.7</ele>
        <time>2025-12-07T10:58:04.000Z</time>
      </trkpt>
      <trkpt lat="43.55969" lon="6.47268">
        <ele>529.6</ele>
        <time>2025-12-07T10:58:10.000Z</time>
      </trkpt>
      <trkpt lat="43.55969" lon="6.47268">
        <ele>530.4</ele>
        <time>2025-12-07T10:58:36.000Z</time>
      </trkpt>
      <trkpt lat="43.55969" lon="6.47268">
        <ele>529.9</ele>
        <time>2025-12-07T10:58:47.000Z</time>
      </trkpt>
      <trkpt lat="43.55969" lon="6.47268">
        <ele>529.8</ele>
        <time>2025-12-07T10:59:24.000Z</time>
      </trkpt>
      <trkpt lat="43.55969" lon="6.47268">
        <ele>530.3</ele>
        <time>2025-12-07T10:59:45.000Z</time>
      </trkpt>
      <trkpt lat="43.55969" lon="6.47268">
        <ele>529.3</ele>
        <time>2025-12-07T10:59:51.000Z</time>
      </trkpt>
      <trkpt lat="43.55969" lon="6.47268">
        <ele>530.5</ele>
        <time>2025-12-07T11:00:09.000Z</time>
      </trkpt>
      <trkpt lat="43.55968" lon="6.47269">
        <ele>530.3</ele>
        <time>2025-12-07T11:00:25.000Z</time>
      </trkpt>
      <trkpt lat="43.55965" lon="6.47272">
        <ele>530</ele>
        <time>2025-12-07T11:00:47.000Z</time>
      </trkpt>
      <trkpt lat="43.55967" lon="6.47268">
        <ele>530.1</ele>
        <time>2025-12-07T11:00:57.000Z</time>
      </trkpt>
      <trkpt lat="43.55968" lon="6.47267">
        <ele>530</ele>
        <time>2025-12-07T11:01:21.000Z</time>
      </trkpt>
      <trkpt lat="43.55968" lon="6.47267">
        <ele>529.9</ele>
        <time>2025-12-07T11:01:22.000Z</time>
      </trkpt>
      <trkpt lat="43.55968" lon="6.47267">
        <ele>529.7</ele>
        <time>2025-12-07T11:02:52.000Z</time>
      </trkpt>
      <trkpt lat="43.55968" lon="6.47267">
        <ele>529.6</ele>
        <time>2025-12-07T11:03:31.000Z</time>
      </trkpt>
      <trkpt lat="43.55968" lon="6.47267">
        <ele>529.6</ele>
        <time>2025-12-07T11:03:42.000Z</time>
      </trkpt>
      <trkpt lat="43.55968" lon="6.47264">
        <ele>529.7</ele>
        <time>2025-12-07T11:04:30.000Z</time>
      </trkpt>
      <trkpt lat="43.55968" lon="6.47251">
        <ele>529.6</ele>
        <time>2025-12-07T11:04:42.000Z</time>
      </trkpt>
      <trkpt lat="43.55967" lon="6.47264">
        <ele>529.2</ele>
        <time>2025-12-07T11:05:15.000Z</time>
      </trkpt>
      <trkpt lat="43.55969" lon="6.47267">
        <ele>529</ele>
        <time>2025-12-07T11:05:53.000Z</time>
      </trkpt>
      <trkpt lat="43.55968" lon="6.47268">
        <ele>529.5</ele>
        <time>2025-12-07T11:07:00.000Z</time>
      </trkpt>
      <trkpt lat="43.55968" lon="6.47268">
        <ele>529.5</ele>
        <time>2025-12-07T11:07:11.000Z</time>
      </trkpt>
      <trkpt lat="43.55968" lon="6.47267">
        <ele>528.8</ele>
        <time>2025-12-07T11:07:22.000Z</time>
      </trkpt>
      <trkpt lat="43.55969" lon="6.47267">
        <ele>529.4</ele>
        <time>2025-12-07T11:07:33.000Z</time>
      </trkpt>
      <trkpt lat="43.55969" lon="6.47268">
        <ele>528.7</ele>
        <time>2025-12-07T11:07:57.000Z</time>
      </trkpt>
      <trkpt lat="43.55969" lon="6.47268">
        <ele>529.7</ele>
        <time>2025-12-07T11:08:07.000Z</time>
      </trkpt>
      <trkpt lat="43.55968" lon="6.4727">
        <ele>529.9</ele>
        <time>2025-12-07T11:09:09.000Z</time>
      </trkpt>
      <trkpt lat="43.55968" lon="6.47269">
        <ele>529.7</ele>
        <time>2025-12-07T11:09:25.000Z</time>
      </trkpt>
      <trkpt lat="43.55968" lon="6.47269">
        <ele>529.7</ele>
        <time>2025-12-07T11:09:30.000Z</time>
      </trkpt>
      <trkpt lat="43.55968" lon="6.47269">
        <ele>529.6</ele>
        <time>2025-12-07T11:09:42.000Z</time>
      </trkpt>
      <trkpt lat="43.55969" lon="6.47269">
        <ele>529.2</ele>
        <time>2025-12-07T11:10:35.000Z</time>
      </trkpt>
      <trkpt lat="43.55969" lon="6.47269">
        <ele>529.3</ele>
        <time>2025-12-07T11:10:56.000Z</time>
      </trkpt>
      <trkpt lat="43.55969" lon="6.47267">
        <ele>529.2</ele>
        <time>2025-12-07T11:11:32.000Z</time>
      </trkpt>
      <trkpt lat="43.55969" lon="6.47267">
        <ele>529.3</ele>
        <time>2025-12-07T11:11:46.000Z</time>
      </trkpt>
      <trkpt lat="43.55967" lon="6.47267">
        <ele>529.2</ele>
        <time>2025-12-07T11:11:55.000Z</time>
      </trkpt>
      <trkpt lat="43.55967" lon="6.47267">
        <ele>529.2</ele>
        <time>2025-12-07T11:12:09.000Z</time>
      </trkpt>
      <trkpt lat="43.55967" lon="6.47267">
        <ele>529.2</ele>
        <time>2025-12-07T11:12:11.000Z</time>
      </trkpt>
      <trkpt lat="43.55967" lon="6.47267">
        <ele>529.2</ele>
        <time>2025-12-07T11:12:25.000Z</time>
      </trkpt>
      <trkpt lat="43.55968" lon="6.47268">
        <ele>529.2</ele>
        <time>2025-12-07T11:13:05.000Z</time>
      </trkpt>
      <trkpt lat="43.55968" lon="6.47268">
        <ele>529.2</ele>
        <time>2025-12-07T11:13:20.000Z</time>
      </trkpt>
      <trkpt lat="43.55967" lon="6.47269">
        <ele>529.3</ele>
        <time>2025-12-07T11:14:57.000Z</time>
      </trkpt>
      <trkpt lat="43.55967" lon="6.47269">
        <ele>529.2</ele>
        <time>2025-12-07T11:15:09.000Z</time>
      </trkpt>
      <trkpt lat="43.55968" lon="6.47268">
        <ele>529</ele>
        <time>2025-12-07T11:15:21.000Z</time>
      </trkpt>
      <trkpt lat="43.55968" lon="6.47268">
        <ele>529</ele>
        <time>2025-12-07T11:15:32.000Z</time>
      </trkpt>
      <trkpt lat="43.55969" lon="6.47268">
        <ele>528.9</ele>
        <time>2025-12-07T11:15:59.000Z</time>
      </trkpt>
      <trkpt lat="43.55969" lon="6.47268">
        <ele>529</ele>
        <time>2025-12-07T11:16:10.000Z</time>
      </trkpt>
      <trkpt lat="43.55969" lon="6.47268">
        <ele>529</ele>
        <time>2025-12-07T11:16:41.000Z</time>
      </trkpt>
      <trkpt lat="43.55968" lon="6.47267">
        <ele>529.1</ele>
        <time>2025-12-07T11:17:03.000Z</time>
      </trkpt>
      <trkpt lat="43.55968" lon="6.47267">
        <ele>529.1</ele>
        <time>2025-12-07T11:17:04.000Z</time>
      </trkpt>
      <trkpt lat="43.55976" lon="6.47261">
        <ele>531.3</ele>
        <time>2025-12-07T11:18:25.000Z</time>
      </trkpt>
      <trkpt lat="43.55974" lon="6.47252">
        <ele>531.7</ele>
        <time>2025-12-07T11:19:04.000Z</time>
      </trkpt>
      <trkpt lat="43.55975" lon="6.47253">
        <ele>532.3</ele>
        <time>2025-12-07T11:19:07.000Z</time>
      </trkpt>
      <trkpt lat="43.55967" lon="6.47247">
        <ele>529.9</ele>
        <time>2025-12-07T11:20:03.000Z</time>
      </trkpt>
      <trkpt lat="43.55971" lon="6.47259">
        <ele>528.3</ele>
        <time>2025-12-07T11:20:27.000Z</time>
      </trkpt>
      <trkpt lat="43.55968" lon="6.47268">
        <ele>529.8</ele>
        <time>2025-12-07T11:20:59.000Z</time>
      </trkpt>
      <trkpt lat="43.55968" lon="6.47268">
        <ele>528.9</ele>
        <time>2025-12-07T11:21:40.000Z</time>
      </trkpt>
      <trkpt lat="43.55968" lon="6.47268">
        <ele>528.3</ele>
        <time>2025-12-07T11:21:54.000Z</time>
      </trkpt>
      <trkpt lat="43.55971" lon="6.47263">
        <ele>530.8</ele>
        <time>2025-12-07T11:23:35.000Z</time>
      </trkpt>
      <trkpt lat="43.55968" lon="6.47266">
        <ele>530.3</ele>
        <time>2025-12-07T11:24:17.000Z</time>
      </trkpt>
      <trkpt lat="43.55968" lon="6.47266">
        <ele>529.9</ele>
        <time>2025-12-07T11:24:36.000Z</time>
      </trkpt>
      <trkpt lat="43.55968" lon="6.47265">
        <ele>529.9</ele>
        <time>2025-12-07T11:24:47.000Z</time>
      </trkpt>
      <trkpt lat="43.55968" lon="6.47267">
        <ele>529.2</ele>
        <time>2025-12-07T11:27:47.000Z</time>
      </trkpt>
      <trkpt lat="43.55967" lon="6.47269">
        <ele>530.1</ele>
        <time>2025-12-07T11:27:58.000Z</time>
      </trkpt>
      <trkpt lat="43.5597" lon="6.47268">
        <ele>529.3</ele>
        <time>2025-12-07T11:29:09.000Z</time>
      </trkpt>
      <trkpt lat="43.55969" lon="6.47268">
        <ele>529.3</ele>
        <time>2025-12-07T11:29:25.000Z</time>
      </trkpt>
      <trkpt lat="43.55969" lon="6.47265">
        <ele>530</ele>
        <time>2025-12-07T11:32:00.000Z</time>
      </trkpt>
      <trkpt lat="43.55964" lon="6.47254">
        <ele>529.2</ele>
        <time>2025-12-07T11:33:03.000Z</time>
      </trkpt>
      <trkpt lat="43.55964" lon="6.47253">
        <ele>528.8</ele>
        <time>2025-12-07T11:33:19.000Z</time>
      </trkpt>
      <trkpt lat="43.55966" lon="6.47251">
        <ele>528.5</ele>
        <time>2025-12-07T11:33:31.000Z</time>
      </trkpt>
      <trkpt lat="43.55966" lon="6.4725">
        <ele>528.4</ele>
        <time>2025-12-07T11:33:37.000Z</time>
      </trkpt>
      <trkpt lat="43.55964" lon="6.47247">
        <ele>528.6</ele>
        <time>2025-12-07T11:35:52.000Z</time>
      </trkpt>
      <trkpt lat="43.55964" lon="6.47247">
        <ele>528.6</ele>
        <time>2025-12-07T11:36:02.000Z</time>
      </trkpt>
      <trkpt lat="43.55966" lon="6.47241">
        <ele>528.4</ele>
        <time>2025-12-07T11:37:38.000Z</time>
      </trkpt>
      <trkpt lat="43.55968" lon="6.47229">
        <ele>528.5</ele>
        <time>2025-12-07T11:37:58.000Z</time>
      </trkpt>
      <trkpt lat="43.55971" lon="6.47217">
        <ele>528.5</ele>
        <time>2025-12-07T11:38:11.000Z</time>
      </trkpt>
      <trkpt lat="43.55976" lon="6.47206">
        <ele>528.2</ele>
        <time>2025-12-07T11:38:22.000Z</time>
      </trkpt>
      <trkpt lat="43.55979" lon="6.47194">
        <ele>527.8</ele>
        <time>2025-12-07T11:38:33.000Z</time>
      </trkpt>
      <trkpt lat="43.55983" lon="6.47182">
        <ele>527.3</ele>
        <time>2025-12-07T11:38:45.000Z</time>
      </trkpt>
      <trkpt lat="43.55988" lon="6.47171">
        <ele>526.5</ele>
        <time>2025-12-07T11:39:00.000Z</time>
      </trkpt>
      <trkpt lat="43.55993" lon="6.4716">
        <ele>526.3</ele>
        <time>2025-12-07T11:39:12.000Z</time>
      </trkpt>
      <trkpt lat="43.55996" lon="6.47148">
        <ele>525.4</ele>
        <time>2025-12-07T11:39:24.000Z</time>
      </trkpt>
      <trkpt lat="43.56002" lon="6.47138">
        <ele>524.8</ele>
        <time>2025-12-07T11:39:34.000Z</time>
      </trkpt>
      <trkpt lat="43.56009" lon="6.47128">
        <ele>523.7</ele>
        <time>2025-12-07T11:39:44.000Z</time>
      </trkpt>
      <trkpt lat="43.56014" lon="6.47117">
        <ele>522.6</ele>
        <time>2025-12-07T11:39:55.000Z</time>
      </trkpt>
      <trkpt lat="43.56021" lon="6.47107">
        <ele>522.4</ele>
        <time>2025-12-07T11:40:05.000Z</time>
      </trkpt>
      <trkpt lat="43.56028" lon="6.47097">
        <ele>521.7</ele>
        <time>2025-12-07T11:40:17.000Z</time>
      </trkpt>
      <trkpt lat="43.56034" lon="6.47086">
        <ele>520.8</ele>
        <time>2025-12-07T11:40:32.000Z</time>
      </trkpt>
      <trkpt lat="43.56039" lon="6.47076">
        <ele>520.4</ele>
        <time>2025-12-07T11:40:44.000Z</time>
      </trkpt>
      <trkpt lat="43.56046" lon="6.47066">
        <ele>520.2</ele>
        <time>2025-12-07T11:40:52.000Z</time>
      </trkpt>
      <trkpt lat="43.56052" lon="6.47057">
        <ele>519.8</ele>
        <time>2025-12-07T11:41:02.000Z</time>
      </trkpt>
      <trkpt lat="43.56058" lon="6.47046">
        <ele>518.7</ele>
        <time>2025-12-07T11:41:11.000Z</time>
      </trkpt>
      <trkpt lat="43.56065" lon="6.47036">
        <ele>518</ele>
        <time>2025-12-07T11:41:19.000Z</time>
      </trkpt>
      <trkpt lat="43.5607" lon="6.47026">
        <ele>517.5</ele>
        <time>2025-12-07T11:41:27.000Z</time>
      </trkpt>
      <trkpt lat="43.56075" lon="6.47016">
        <ele>516.8</ele>
        <time>2025-12-07T11:41:35.000Z</time>
      </trkpt>
      <trkpt lat="43.56082" lon="6.47007">
        <ele>516.2</ele>
        <time>2025-12-07T11:41:44.000Z</time>
      </trkpt>
      <trkpt lat="43.56089" lon="6.46997">
        <ele>515.6</ele>
        <time>2025-12-07T11:41:54.000Z</time>
      </trkpt>
      <trkpt lat="43.56097" lon="6.4699">
        <ele>514.7</ele>
        <time>2025-12-07T11:42:04.000Z</time>
      </trkpt>
      <trkpt lat="43.56106" lon="6.46983">
        <ele>513.7</ele>
        <time>2025-12-07T11:42:15.000Z</time>
      </trkpt>
      <trkpt lat="43.56114" lon="6.46977">
        <ele>513.1</ele>
        <time>2025-12-07T11:42:25.000Z</time>
      </trkpt>
      <trkpt lat="43.56122" lon="6.4697">
        <ele>512.7</ele>
        <time>2025-12-07T11:42:35.000Z</time>
      </trkpt>
      <trkpt lat="43.5613" lon="6.46961">
        <ele>512.3</ele>
        <time>2025-12-07T11:42:45.000Z</time>
      </trkpt>
      <trkpt lat="43.56137" lon="6.46953">
        <ele>512.1</ele>
        <time>2025-12-07T11:42:55.000Z</time>
      </trkpt>
      <trkpt lat="43.56144" lon="6.46944">
        <ele>511.4</ele>
        <time>2025-12-07T11:43:11.000Z</time>
      </trkpt>
      <trkpt lat="43.5615" lon="6.46932">
        <ele>511.1</ele>
        <time>2025-12-07T11:43:20.000Z</time>
      </trkpt>
      <trkpt lat="43.56154" lon="6.46921">
        <ele>510.8</ele>
        <time>2025-12-07T11:43:28.000Z</time>
      </trkpt>
      <trkpt lat="43.56157" lon="6.46907">
        <ele>510.4</ele>
        <time>2025-12-07T11:43:37.000Z</time>
      </trkpt>
      <trkpt lat="43.5616" lon="6.46895">
        <ele>509.9</ele>
        <time>2025-12-07T11:43:46.000Z</time>
      </trkpt>
      <trkpt lat="43.56162" lon="6.46883">
        <ele>509.6</ele>
        <time>2025-12-07T11:43:54.000Z</time>
      </trkpt>
      <trkpt lat="43.56163" lon="6.46869">
        <ele>509.1</ele>
        <time>2025-12-07T11:44:04.000Z</time>
      </trkpt>
      <trkpt lat="43.56167" lon="6.46858">
        <ele>508.6</ele>
        <time>2025-12-07T11:44:12.000Z</time>
      </trkpt>
      <trkpt lat="43.5617" lon="6.46845">
        <ele>508</ele>
        <time>2025-12-07T11:44:22.000Z</time>
      </trkpt>
      <trkpt lat="43.56173" lon="6.46833">
        <ele>507.2</ele>
        <time>2025-12-07T11:44:32.000Z</time>
      </trkpt>
      <trkpt lat="43.56176" lon="6.4682">
        <ele>506.6</ele>
        <time>2025-12-07T11:44:42.000Z</time>
      </trkpt>
      <trkpt lat="43.56178" lon="6.46807">
        <ele>506.2</ele>
        <time>2025-12-07T11:44:53.000Z</time>
      </trkpt>
      <trkpt lat="43.56178" lon="6.46794">
        <ele>505.7</ele>
        <time>2025-12-07T11:45:03.000Z</time>
      </trkpt>
      <trkpt lat="43.56176" lon="6.46782">
        <ele>505.4</ele>
        <time>2025-12-07T11:45:13.000Z</time>
      </trkpt>
      <trkpt lat="43.56174" lon="6.46768">
        <ele>505</ele>
        <time>2025-12-07T11:45:23.000Z</time>
      </trkpt>
      <trkpt lat="43.56172" lon="6.46755">
        <ele>504.5</ele>
        <time>2025-12-07T11:45:32.000Z</time>
      </trkpt>
      <trkpt lat="43.56169" lon="6.46742">
        <ele>503.9</ele>
        <time>2025-12-07T11:45:43.000Z</time>
      </trkpt>
      <trkpt lat="43.56168" lon="6.46729">
        <ele>503.4</ele>
        <time>2025-12-07T11:45:52.000Z</time>
      </trkpt>
      <trkpt lat="43.56167" lon="6.46717">
        <ele>503.1</ele>
        <time>2025-12-07T11:46:01.000Z</time>
      </trkpt>
      <trkpt lat="43.56167" lon="6.46703">
        <ele>502.5</ele>
        <time>2025-12-07T11:46:10.000Z</time>
      </trkpt>
      <trkpt lat="43.56165" lon="6.4669">
        <ele>502.2</ele>
        <time>2025-12-07T11:46:20.000Z</time>
      </trkpt>
      <trkpt lat="43.56162" lon="6.46678">
        <ele>501.7</ele>
        <time>2025-12-07T11:46:30.000Z</time>
      </trkpt>
      <trkpt lat="43.56161" lon="6.46665">
        <ele>501.1</ele>
        <time>2025-12-07T11:46:39.000Z</time>
      </trkpt>
      <trkpt lat="43.56158" lon="6.46653">
        <ele>500.4</ele>
        <time>2025-12-07T11:46:49.000Z</time>
      </trkpt>
      <trkpt lat="43.56157" lon="6.4664">
        <ele>499.9</ele>
        <time>2025-12-07T11:46:58.000Z</time>
      </trkpt>
      <trkpt lat="43.56152" lon="6.46629">
        <ele>498.6</ele>
        <time>2025-12-07T11:47:19.000Z</time>
      </trkpt>
      <trkpt lat="43.56157" lon="6.46618">
        <ele>497.8</ele>
        <time>2025-12-07T11:48:03.000Z</time>
      </trkpt>
      <trkpt lat="43.56166" lon="6.46615">
        <ele>498.2</ele>
        <time>2025-12-07T11:48:14.000Z</time>
      </trkpt>
      <trkpt lat="43.56175" lon="6.46609">
        <ele>498.5</ele>
        <time>2025-12-07T11:48:23.000Z</time>
      </trkpt>
      <trkpt lat="43.56183" lon="6.46603">
        <ele>498.5</ele>
        <time>2025-12-07T11:48:34.000Z</time>
      </trkpt>
      <trkpt lat="43.56192" lon="6.46595">
        <ele>497.8</ele>
        <time>2025-12-07T11:48:44.000Z</time>
      </trkpt>
      <trkpt lat="43.56199" lon="6.46588">
        <ele>497.2</ele>
        <time>2025-12-07T11:48:52.000Z</time>
      </trkpt>
      <trkpt lat="43.56206" lon="6.46578">
        <ele>496.4</ele>
        <time>2025-12-07T11:49:01.000Z</time>
      </trkpt>
      <trkpt lat="43.56214" lon="6.46572">
        <ele>496.2</ele>
        <time>2025-12-07T11:49:09.000Z</time>
      </trkpt>
      <trkpt lat="43.56221" lon="6.46562">
        <ele>495.8</ele>
        <time>2025-12-07T11:49:20.000Z</time>
      </trkpt>
      <trkpt lat="43.56228" lon="6.46554">
        <ele>495.6</ele>
        <time>2025-12-07T11:49:30.000Z</time>
      </trkpt>
      <trkpt lat="43.56236" lon="6.46547">
        <ele>495.3</ele>
        <time>2025-12-07T11:49:38.000Z</time>
      </trkpt>
      <trkpt lat="43.56245" lon="6.46541">
        <ele>495.1</ele>
        <time>2025-12-07T11:49:48.000Z</time>
      </trkpt>
      <trkpt lat="43.56254" lon="6.46535">
        <ele>494.6</ele>
        <time>2025-12-07T11:49:59.000Z</time>
      </trkpt>
      <trkpt lat="43.56263" lon="6.46531">
        <ele>494.4</ele>
        <time>2025-12-07T11:50:10.000Z</time>
      </trkpt>
      <trkpt lat="43.56272" lon="6.46527">
        <ele>494.3</ele>
        <time>2025-12-07T11:50:19.000Z</time>
      </trkpt>
      <trkpt lat="43.5628" lon="6.46521">
        <ele>494.3</ele>
        <time>2025-12-07T11:50:28.000Z</time>
      </trkpt>
      <trkpt lat="43.56289" lon="6.46517">
        <ele>494.1</ele>
        <time>2025-12-07T11:50:38.000Z</time>
      </trkpt>
      <trkpt lat="43.56298" lon="6.46511">
        <ele>494.7</ele>
        <time>2025-12-07T11:50:50.000Z</time>
      </trkpt>
      <trkpt lat="43.56307" lon="6.46506">
        <ele>495.6</ele>
        <time>2025-12-07T11:51:03.000Z</time>
      </trkpt>
      <trkpt lat="43.56316" lon="6.46509">
        <ele>496.3</ele>
        <time>2025-12-07T11:51:15.000Z</time>
      </trkpt>
      <trkpt lat="43.56325" lon="6.46506">
        <ele>497.1</ele>
        <time>2025-12-07T11:51:26.000Z</time>
      </trkpt>
      <trkpt lat="43.56334" lon="6.46508">
        <ele>498.1</ele>
        <time>2025-12-07T11:51:37.000Z</time>
      </trkpt>
      <trkpt lat="43.56343" lon="6.4651">
        <ele>498.9</ele>
        <time>2025-12-07T11:51:48.000Z</time>
      </trkpt>
      <trkpt lat="43.56353" lon="6.4651">
        <ele>499.4</ele>
        <time>2025-12-07T11:52:02.000Z</time>
      </trkpt>
      <trkpt lat="43.56363" lon="6.46511">
        <ele>499.8</ele>
        <time>2025-12-07T11:52:13.000Z</time>
      </trkpt>
      <trkpt lat="43.56371" lon="6.46504">
        <ele>500.2</ele>
        <time>2025-12-07T11:52:24.000Z</time>
      </trkpt>
      <trkpt lat="43.56377" lon="6.46493">
        <ele>500.5</ele>
        <time>2025-12-07T11:52:32.000Z</time>
      </trkpt>
      <trkpt lat="43.56384" lon="6.46484">
        <ele>500.7</ele>
        <time>2025-12-07T11:52:39.000Z</time>
      </trkpt>
      <trkpt lat="43.56387" lon="6.46471">
        <ele>501.2</ele>
        <time>2025-12-07T11:52:50.000Z</time>
      </trkpt>
      <trkpt lat="43.56391" lon="6.4646">
        <ele>502.2</ele>
        <time>2025-12-07T11:53:01.000Z</time>
      </trkpt>
      <trkpt lat="43.56396" lon="6.46449">
        <ele>503</ele>
        <time>2025-12-07T11:53:14.000Z</time>
      </trkpt>
      <trkpt lat="43.56402" lon="6.46439">
        <ele>503.9</ele>
        <time>2025-12-07T11:53:30.000Z</time>
      </trkpt>
      <trkpt lat="43.5641" lon="6.46432">
        <ele>505</ele>
        <time>2025-12-07T11:53:43.000Z</time>
      </trkpt>
      <trkpt lat="43.56418" lon="6.46425">
        <ele>505.4</ele>
        <time>2025-12-07T11:53:54.000Z</time>
      </trkpt>
      <trkpt lat="43.56426" lon="6.4642">
        <ele>505.9</ele>
        <time>2025-12-07T11:54:09.000Z</time>
      </trkpt>
      <trkpt lat="43.56435" lon="6.46414">
        <ele>506</ele>
        <time>2025-12-07T11:54:21.000Z</time>
      </trkpt>
      <trkpt lat="43.56442" lon="6.46405">
        <ele>506</ele>
        <time>2025-12-07T11:54:31.000Z</time>
      </trkpt>
      <trkpt lat="43.5645" lon="6.46398">
        <ele>506</ele>
        <time>2025-12-07T11:54:42.000Z</time>
      </trkpt>
      <trkpt lat="43.56456" lon="6.46387">
        <ele>506.1</ele>
        <time>2025-12-07T11:54:52.000Z</time>
      </trkpt>
      <trkpt lat="43.56463" lon="6.46378">
        <ele>506.4</ele>
        <time>2025-12-07T11:55:01.000Z</time>
      </trkpt>
      <trkpt lat="43.56469" lon="6.46367">
        <ele>507.4</ele>
        <time>2025-12-07T11:55:13.000Z</time>
      </trkpt>
      <trkpt lat="43.56476" lon="6.46361">
        <ele>507.8</ele>
        <time>2025-12-07T11:55:23.000Z</time>
      </trkpt>
      <trkpt lat="43.56483" lon="6.46351">
        <ele>509.3</ele>
        <time>2025-12-07T11:55:43.000Z</time>
      </trkpt>
      <trkpt lat="43.56491" lon="6.46345">
        <ele>510.2</ele>
        <time>2025-12-07T11:55:56.000Z</time>
      </trkpt>
      <trkpt lat="43.565" lon="6.4634">
        <ele>511.5</ele>
        <time>2025-12-07T11:56:09.000Z</time>
      </trkpt>
      <trkpt lat="43.56508" lon="6.46334">
        <ele>513</ele>
        <time>2025-12-07T11:56:24.000Z</time>
      </trkpt>
      <trkpt lat="43.56516" lon="6.46328">
        <ele>514.2</ele>
        <time>2025-12-07T11:56:36.000Z</time>
      </trkpt>
      <trkpt lat="43.56524" lon="6.46322">
        <ele>515.1</ele>
        <time>2025-12-07T11:56:46.000Z</time>
      </trkpt>
      <trkpt lat="43.56534" lon="6.4632">
        <ele>516.2</ele>
        <time>2025-12-07T11:56:59.000Z</time>
      </trkpt>
      <trkpt lat="43.56542" lon="6.46314">
        <ele>517.4</ele>
        <time>2025-12-07T11:57:10.000Z</time>
      </trkpt>
      <trkpt lat="43.56551" lon="6.46312">
        <ele>518.5</ele>
        <time>2025-12-07T11:57:22.000Z</time>
      </trkpt>
      <trkpt lat="43.5656" lon="6.46307">
        <ele>519.3</ele>
        <time>2025-12-07T11:57:32.000Z</time>
      </trkpt>
      <trkpt lat="43.56569" lon="6.46305">
        <ele>519.8</ele>
        <time>2025-12-07T11:57:54.000Z</time>
      </trkpt>
      <trkpt lat="43.56571" lon="6.46304">
        <ele>520.1</ele>
        <time>2025-12-07T11:58:14.000Z</time>
      </trkpt>
      <trkpt lat="43.56573" lon="6.46303">
        <ele>520.3</ele>
        <time>2025-12-07T11:58:44.000Z</time>
      </trkpt>
      <trkpt lat="43.56578" lon="6.463">
        <ele>520.6</ele>
        <time>2025-12-07T11:59:05.000Z</time>
      </trkpt>
      <trkpt lat="43.56582" lon="6.46301">
        <ele>520.5</ele>
        <time>2025-12-07T11:59:22.000Z</time>
      </trkpt>
      <trkpt lat="43.56592" lon="6.463">
        <ele>520.5</ele>
        <time>2025-12-07T11:59:33.000Z</time>
      </trkpt>
      <trkpt lat="43.56601" lon="6.46298">
        <ele>520.4</ele>
        <time>2025-12-07T11:59:44.000Z</time>
      </trkpt>
      <trkpt lat="43.5661" lon="6.46302">
        <ele>520.1</ele>
        <time>2025-12-07T11:59:56.000Z</time>
      </trkpt>
      <trkpt lat="43.56619" lon="6.46303">
        <ele>519.5</ele>
        <time>2025-12-07T12:00:06.000Z</time>
      </trkpt>
      <trkpt lat="43.56628" lon="6.46309">
        <ele>518.6</ele>
        <time>2025-12-07T12:00:16.000Z</time>
      </trkpt>
      <trkpt lat="43.56636" lon="6.46316">
        <ele>517.1</ele>
        <time>2025-12-07T12:00:26.000Z</time>
      </trkpt>
      <trkpt lat="43.56644" lon="6.46322">
        <ele>516</ele>
        <time>2025-12-07T12:00:39.000Z</time>
      </trkpt>
      <trkpt lat="43.56651" lon="6.4633">
        <ele>515.4</ele>
        <time>2025-12-07T12:00:50.000Z</time>
      </trkpt>
      <trkpt lat="43.56657" lon="6.46339">
        <ele>513.1</ele>
        <time>2025-12-07T12:01:12.000Z</time>
      </trkpt>
      <trkpt lat="43.56659" lon="6.46341">
        <ele>512.6</ele>
        <time>2025-12-07T12:01:34.000Z</time>
      </trkpt>
      <trkpt lat="43.56659" lon="6.46341">
        <ele>512.5</ele>
        <time>2025-12-07T12:01:35.000Z</time>
      </trkpt>
      <trkpt lat="43.56666" lon="6.46351">
        <ele>512.5</ele>
        <time>2025-12-07T12:01:46.000Z</time>
      </trkpt>
      <trkpt lat="43.56669" lon="6.46364">
        <ele>511.7</ele>
        <time>2025-12-07T12:01:55.000Z</time>
      </trkpt>
      <trkpt lat="43.56677" lon="6.46373">
        <ele>510.1</ele>
        <time>2025-12-07T12:02:04.000Z</time>
      </trkpt>
      <trkpt lat="43.56685" lon="6.46381">
        <ele>508.8</ele>
        <time>2025-12-07T12:02:32.000Z</time>
      </trkpt>
      <trkpt lat="43.56692" lon="6.46391">
        <ele>507.5</ele>
        <time>2025-12-07T12:02:43.000Z</time>
      </trkpt>
      <trkpt lat="43.567" lon="6.46396">
        <ele>505.3</ele>
        <time>2025-12-07T12:02:55.000Z</time>
      </trkpt>
      <trkpt lat="43.56708" lon="6.46404">
        <ele>503.3</ele>
        <time>2025-12-07T12:03:08.000Z</time>
      </trkpt>
      <trkpt lat="43.56715" lon="6.46412">
        <ele>501.9</ele>
        <time>2025-12-07T12:03:19.000Z</time>
      </trkpt>
      <trkpt lat="43.56723" lon="6.46418">
        <ele>500.1</ele>
        <time>2025-12-07T12:03:34.000Z</time>
      </trkpt>
      <trkpt lat="43.56732" lon="6.46423">
        <ele>499.2</ele>
        <time>2025-12-07T12:03:43.000Z</time>
      </trkpt>
      <trkpt lat="43.56742" lon="6.46427">
        <ele>498.7</ele>
        <time>2025-12-07T12:03:52.000Z</time>
      </trkpt>
      <trkpt lat="43.56752" lon="6.4643">
        <ele>498.4</ele>
        <time>2025-12-07T12:04:02.000Z</time>
      </trkpt>
      <trkpt lat="43.5676" lon="6.46437">
        <ele>497.7</ele>
        <time>2025-12-07T12:04:12.000Z</time>
      </trkpt>
      <trkpt lat="43.56767" lon="6.46446">
        <ele>496.7</ele>
        <time>2025-12-07T12:04:23.000Z</time>
      </trkpt>
      <trkpt lat="43.56773" lon="6.46456">
        <ele>495</ele>
        <time>2025-12-07T12:04:37.000Z</time>
      </trkpt>
      <trkpt lat="43.56777" lon="6.46467">
        <ele>493.5</ele>
        <time>2025-12-07T12:04:50.000Z</time>
      </trkpt>
      <trkpt lat="43.56785" lon="6.46474">
        <ele>492.3</ele>
        <time>2025-12-07T12:05:00.000Z</time>
      </trkpt>
      <trkpt lat="43.56793" lon="6.46483">
        <ele>491.3</ele>
        <time>2025-12-07T12:05:11.000Z</time>
      </trkpt>
      <trkpt lat="43.56801" lon="6.4649">
        <ele>490.6</ele>
        <time>2025-12-07T12:05:24.000Z</time>
      </trkpt>
      <trkpt lat="43.56807" lon="6.465">
        <ele>489.6</ele>
        <time>2025-12-07T12:05:35.000Z</time>
      </trkpt>
      <trkpt lat="43.56815" lon="6.46507">
        <ele>488.3</ele>
        <time>2025-12-07T12:05:50.000Z</time>
      </trkpt>
      <trkpt lat="43.56824" lon="6.4651">
        <ele>487.7</ele>
        <time>2025-12-07T12:05:59.000Z</time>
      </trkpt>
      <trkpt lat="43.56834" lon="6.46513">
        <ele>487.3</ele>
        <time>2025-12-07T12:06:08.000Z</time>
      </trkpt>
      <trkpt lat="43.56842" lon="6.46518">
        <ele>487</ele>
        <time>2025-12-07T12:06:19.000Z</time>
      </trkpt>
      <trkpt lat="43.56852" lon="6.4652">
        <ele>486.7</ele>
        <time>2025-12-07T12:06:27.000Z</time>
      </trkpt>
      <trkpt lat="43.56861" lon="6.46522">
        <ele>486</ele>
        <time>2025-12-07T12:06:36.000Z</time>
      </trkpt>
      <trkpt lat="43.56869" lon="6.46526">
        <ele>484.6</ele>
        <time>2025-12-07T12:06:59.000Z</time>
      </trkpt>
      <trkpt lat="43.56872" lon="6.46528">
        <ele>484.3</ele>
        <time>2025-12-07T12:07:30.000Z</time>
      </trkpt>
      <trkpt lat="43.5688" lon="6.46534">
        <ele>484.4</ele>
        <time>2025-12-07T12:07:42.000Z</time>
      </trkpt>
      <trkpt lat="43.56889" lon="6.46535">
        <ele>484.4</ele>
        <time>2025-12-07T12:08:00.000Z</time>
      </trkpt>
      <trkpt lat="43.56899" lon="6.46535">
        <ele>484.4</ele>
        <time>2025-12-07T12:08:15.000Z</time>
      </trkpt>
      <trkpt lat="43.56908" lon="6.46529">
        <ele>484.4</ele>
        <time>2025-12-07T12:08:24.000Z</time>
      </trkpt>
      <trkpt lat="43.56916" lon="6.46525">
        <ele>484.6</ele>
        <time>2025-12-07T12:08:34.000Z</time>
      </trkpt>
      <trkpt lat="43.56925" lon="6.46521">
        <ele>485.2</ele>
        <time>2025-12-07T12:09:00.000Z</time>
      </trkpt>
      <trkpt lat="43.56928" lon="6.46515">
        <ele>485.5</ele>
        <time>2025-12-07T12:09:17.000Z</time>
      </trkpt>
      <trkpt lat="43.5693" lon="6.46517">
        <ele>485.8</ele>
        <time>2025-12-07T12:09:56.000Z</time>
      </trkpt>
      <trkpt lat="43.5694" lon="6.46515">
        <ele>486.1</ele>
        <time>2025-12-07T12:10:11.000Z</time>
      </trkpt>
      <trkpt lat="43.56949" lon="6.46512">
        <ele>486.7</ele>
        <time>2025-12-07T12:10:21.000Z</time>
      </trkpt>
      <trkpt lat="43.56957" lon="6.46508">
        <ele>488.4</ele>
        <time>2025-12-07T12:10:34.000Z</time>
      </trkpt>
      <trkpt lat="43.56967" lon="6.46505">
        <ele>488.9</ele>
        <time>2025-12-07T12:10:47.000Z</time>
      </trkpt>
      <trkpt lat="43.56976" lon="6.46501">
        <ele>489.7</ele>
        <time>2025-12-07T12:11:01.000Z</time>
      </trkpt>
      <trkpt lat="43.56985" lon="6.46504">
        <ele>490</ele>
        <time>2025-12-07T12:11:15.000Z</time>
      </trkpt>
      <trkpt lat="43.56993" lon="6.46507">
        <ele>490.5</ele>
        <time>2025-12-07T12:11:29.000Z</time>
      </trkpt>
      <trkpt lat="43.57002" lon="6.46513">
        <ele>490.8</ele>
        <time>2025-12-07T12:11:47.000Z</time>
      </trkpt>
      <trkpt lat="43.57011" lon="6.46518">
        <ele>490.8</ele>
        <time>2025-12-07T12:12:00.000Z</time>
      </trkpt>
      <trkpt lat="43.5702" lon="6.46522">
        <ele>490.6</ele>
        <time>2025-12-07T12:12:12.000Z</time>
      </trkpt>
      <trkpt lat="43.57028" lon="6.46527">
        <ele>489.9</ele>
        <time>2025-12-07T12:12:24.000Z</time>
      </trkpt>
      <trkpt lat="43.57037" lon="6.46533">
        <ele>489</ele>
        <time>2025-12-07T12:12:36.000Z</time>
      </trkpt>
      <trkpt lat="43.57045" lon="6.46538">
        <ele>487.6</ele>
        <time>2025-12-07T12:12:49.000Z</time>
      </trkpt>
      <trkpt lat="43.57055" lon="6.46539">
        <ele>486.3</ele>
        <time>2025-12-07T12:13:01.000Z</time>
      </trkpt>
      <trkpt lat="43.57063" lon="6.46543">
        <ele>485</ele>
        <time>2025-12-07T12:13:12.000Z</time>
      </trkpt>
      <trkpt lat="43.57073" lon="6.46541">
        <ele>484.6</ele>
        <time>2025-12-07T12:13:23.000Z</time>
      </trkpt>
      <trkpt lat="43.57082" lon="6.46543">
        <ele>484.1</ele>
        <time>2025-12-07T12:13:37.000Z</time>
      </trkpt>
      <trkpt lat="43.57092" lon="6.46546">
        <ele>483.4</ele>
        <time>2025-12-07T12:13:48.000Z</time>
      </trkpt>
      <trkpt lat="43.57101" lon="6.4655">
        <ele>482.7</ele>
        <time>2025-12-07T12:14:00.000Z</time>
      </trkpt>
      <trkpt lat="43.5711" lon="6.46552">
        <ele>481.8</ele>
        <time>2025-12-07T12:14:11.000Z</time>
      </trkpt>
      <trkpt lat="43.57119" lon="6.46553">
        <ele>481.1</ele>
        <time>2025-12-07T12:14:23.000Z</time>
      </trkpt>
      <trkpt lat="43.57127" lon="6.46558">
        <ele>480.3</ele>
        <time>2025-12-07T12:14:35.000Z</time>
      </trkpt>
      <trkpt lat="43.57135" lon="6.46564">
        <ele>479.5</ele>
        <time>2025-12-07T12:14:46.000Z</time>
      </trkpt>
      <trkpt lat="43.57142" lon="6.46573">
        <ele>478.6</ele>
        <time>2025-12-07T12:14:57.000Z</time>
      </trkpt>
      <trkpt lat="43.57151" lon="6.46577">
        <ele>477.7</ele>
        <time>2025-12-07T12:15:29.000Z</time>
      </trkpt>
      <trkpt lat="43.57156" lon="6.46589">
        <ele>477.7</ele>
        <time>2025-12-07T12:15:39.000Z</time>
      </trkpt>
      <trkpt lat="43.57161" lon="6.46599">
        <ele>477.5</ele>
        <time>2025-12-07T12:15:49.000Z</time>
      </trkpt>
      <trkpt lat="43.57167" lon="6.46609">
        <ele>476.9</ele>
        <time>2025-12-07T12:16:00.000Z</time>
      </trkpt>
      <trkpt lat="43.57171" lon="6.46621">
        <ele>476.2</ele>
        <time>2025-12-07T12:16:13.000Z</time>
      </trkpt>
      <trkpt lat="43.57176" lon="6.46632">
        <ele>475.7</ele>
        <time>2025-12-07T12:16:24.000Z</time>
      </trkpt>
      <trkpt lat="43.5718" lon="6.46643">
        <ele>474.9</ele>
        <time>2025-12-07T12:16:37.000Z</time>
      </trkpt>
      <trkpt lat="43.5718" lon="6.46657">
        <ele>474.3</ele>
        <time>2025-12-07T12:16:48.000Z</time>
      </trkpt>
      <trkpt lat="43.57183" lon="6.46669">
        <ele>473.9</ele>
        <time>2025-12-07T12:16:59.000Z</time>
      </trkpt>
      <trkpt lat="43.57184" lon="6.46684">
        <ele>473.7</ele>
        <time>2025-12-07T12:17:08.000Z</time>
      </trkpt>
      <trkpt lat="43.57185" lon="6.46697">
        <ele>473.5</ele>
        <time>2025-12-07T12:17:18.000Z</time>
      </trkpt>
      <trkpt lat="43.57189" lon="6.4671">
        <ele>472.9</ele>
        <time>2025-12-07T12:17:27.000Z</time>
      </trkpt>
      <trkpt lat="43.57193" lon="6.46721">
        <ele>472.4</ele>
        <time>2025-12-07T12:17:35.000Z</time>
      </trkpt>
      <trkpt lat="43.57198" lon="6.46732">
        <ele>471.9</ele>
        <time>2025-12-07T12:17:45.000Z</time>
      </trkpt>
      <trkpt lat="43.57205" lon="6.4674">
        <ele>471.9</ele>
        <time>2025-12-07T12:17:56.000Z</time>
      </trkpt>
      <trkpt lat="43.57214" lon="6.46746">
        <ele>471.8</ele>
        <time>2025-12-07T12:18:07.000Z</time>
      </trkpt>
      <trkpt lat="43.57221" lon="6.46755">
        <ele>471.5</ele>
        <time>2025-12-07T12:18:17.000Z</time>
      </trkpt>
      <trkpt lat="43.57228" lon="6.46763">
        <ele>471</ele>
        <time>2025-12-07T12:18:27.000Z</time>
      </trkpt>
      <trkpt lat="43.57233" lon="6.46774">
        <ele>470.5</ele>
        <time>2025-12-07T12:18:39.000Z</time>
      </trkpt>
      <trkpt lat="43.57238" lon="6.46786">
        <ele>469.8</ele>
        <time>2025-12-07T12:18:51.000Z</time>
      </trkpt>
      <trkpt lat="43.57239" lon="6.46799">
        <ele>469.3</ele>
        <time>2025-12-07T12:19:02.000Z</time>
      </trkpt>
      <trkpt lat="43.57239" lon="6.46812">
        <ele>468.9</ele>
        <time>2025-12-07T12:19:13.000Z</time>
      </trkpt>
      <trkpt lat="43.5724" lon="6.46825">
        <ele>468.6</ele>
        <time>2025-12-07T12:19:25.000Z</time>
      </trkpt>
      <trkpt lat="43.57238" lon="6.46838">
        <ele>468.4</ele>
        <time>2025-12-07T12:19:35.000Z</time>
      </trkpt>
      <trkpt lat="43.57238" lon="6.46852">
        <ele>468.2</ele>
        <time>2025-12-07T12:19:44.000Z</time>
      </trkpt>
      <trkpt lat="43.57238" lon="6.46865">
        <ele>468.1</ele>
        <time>2025-12-07T12:19:54.000Z</time>
      </trkpt>
      <trkpt lat="43.57237" lon="6.46878">
        <ele>468</ele>
        <time>2025-12-07T12:20:03.000Z</time>
      </trkpt>
      <trkpt lat="43.57238" lon="6.4689">
        <ele>467.7</ele>
        <time>2025-12-07T12:20:14.000Z</time>
      </trkpt>
      <trkpt lat="43.57238" lon="6.46903">
        <ele>467.6</ele>
        <time>2025-12-07T12:20:25.000Z</time>
      </trkpt>
      <trkpt lat="43.57237" lon="6.46916">
        <ele>467.4</ele>
        <time>2025-12-07T12:20:34.000Z</time>
      </trkpt>
      <trkpt lat="43.57239" lon="6.46929">
        <ele>467.2</ele>
        <time>2025-12-07T12:20:44.000Z</time>
      </trkpt>
      <trkpt lat="43.5724" lon="6.46942">
        <ele>467.3</ele>
        <time>2025-12-07T12:20:54.000Z</time>
      </trkpt>
      <trkpt lat="43.5724" lon="6.46955">
        <ele>467</ele>
        <time>2025-12-07T12:21:03.000Z</time>
      </trkpt>
      <trkpt lat="43.57239" lon="6.46968">
        <ele>466.4</ele>
        <time>2025-12-07T12:21:14.000Z</time>
      </trkpt>
      <trkpt lat="43.5724" lon="6.46982">
        <ele>465.9</ele>
        <time>2025-12-07T12:21:24.000Z</time>
      </trkpt>
      <trkpt lat="43.5724" lon="6.46995">
        <ele>465.4</ele>
        <time>2025-12-07T12:21:35.000Z</time>
      </trkpt>
      <trkpt lat="43.57241" lon="6.47008">
        <ele>465.5</ele>
        <time>2025-12-07T12:21:43.000Z</time>
      </trkpt>
      <trkpt lat="43.57241" lon="6.47021">
        <ele>465.4</ele>
        <time>2025-12-07T12:21:53.000Z</time>
      </trkpt>
      <trkpt lat="43.57244" lon="6.47033">
        <ele>465.4</ele>
        <time>2025-12-07T12:22:02.000Z</time>
      </trkpt>
      <trkpt lat="43.57246" lon="6.47046">
        <ele>465.2</ele>
        <time>2025-12-07T12:22:12.000Z</time>
      </trkpt>
      <trkpt lat="43.5725" lon="6.47058">
        <ele>465</ele>
        <time>2025-12-07T12:22:21.000Z</time>
      </trkpt>
      <trkpt lat="43.57256" lon="6.47067">
        <ele>465.1</ele>
        <time>2025-12-07T12:22:30.000Z</time>
      </trkpt>
      <trkpt lat="43.5726" lon="6.4708">
        <ele>465.2</ele>
        <time>2025-12-07T12:22:38.000Z</time>
      </trkpt>
      <trkpt lat="43.57267" lon="6.4709">
        <ele>465.3</ele>
        <time>2025-12-07T12:22:47.000Z</time>
      </trkpt>
      <trkpt lat="43.57271" lon="6.47102">
        <ele>465.1</ele>
        <time>2025-12-07T12:22:56.000Z</time>
      </trkpt>
      <trkpt lat="43.57276" lon="6.47113">
        <ele>464.7</ele>
        <time>2025-12-07T12:23:07.000Z</time>
      </trkpt>
      <trkpt lat="43.57278" lon="6.47126">
        <ele>464</ele>
        <time>2025-12-07T12:23:17.000Z</time>
      </trkpt>
      <trkpt lat="43.57278" lon="6.47138">
        <ele>463.3</ele>
        <time>2025-12-07T12:23:26.000Z</time>
      </trkpt>
      <trkpt lat="43.57282" lon="6.4715">
        <ele>462.8</ele>
        <time>2025-12-07T12:23:36.000Z</time>
      </trkpt>
      <trkpt lat="43.57288" lon="6.4716">
        <ele>462.2</ele>
        <time>2025-12-07T12:23:46.000Z</time>
      </trkpt>
      <trkpt lat="43.57293" lon="6.47171">
        <ele>462</ele>
        <time>2025-12-07T12:23:57.000Z</time>
      </trkpt>
      <trkpt lat="43.57295" lon="6.47185">
        <ele>461.6</ele>
        <time>2025-12-07T12:24:09.000Z</time>
      </trkpt>
      <trkpt lat="43.573" lon="6.47196">
        <ele>460.8</ele>
        <time>2025-12-07T12:24:20.000Z</time>
      </trkpt>
      <trkpt lat="43.57296" lon="6.47207">
        <ele>460.2</ele>
        <time>2025-12-07T12:24:30.000Z</time>
      </trkpt>
      <trkpt lat="43.57297" lon="6.4722">
        <ele>459.6</ele>
        <time>2025-12-07T12:24:43.000Z</time>
      </trkpt>
      <trkpt lat="43.57295" lon="6.47234">
        <ele>459.1</ele>
        <time>2025-12-07T12:24:54.000Z</time>
      </trkpt>
      <trkpt lat="43.57294" lon="6.47247">
        <ele>458.6</ele>
        <time>2025-12-07T12:25:04.000Z</time>
      </trkpt>
      <trkpt lat="43.57292" lon="6.47261">
        <ele>457.9</ele>
        <time>2025-12-07T12:25:14.000Z</time>
      </trkpt>
      <trkpt lat="43.57288" lon="6.47273">
        <ele>457.1</ele>
        <time>2025-12-07T12:25:25.000Z</time>
      </trkpt>
      <trkpt lat="43.57289" lon="6.47286">
        <ele>456.6</ele>
        <time>2025-12-07T12:25:37.000Z</time>
      </trkpt>
      <trkpt lat="43.57284" lon="6.47298">
        <ele>456.3</ele>
        <time>2025-12-07T12:25:50.000Z</time>
      </trkpt>
      <trkpt lat="43.57282" lon="6.4731">
        <ele>455.8</ele>
        <time>2025-12-07T12:26:00.000Z</time>
      </trkpt>
      <trkpt lat="43.57281" lon="6.47324">
        <ele>455.1</ele>
        <time>2025-12-07T12:26:10.000Z</time>
      </trkpt>
      <trkpt lat="43.57278" lon="6.47337">
        <ele>454.2</ele>
        <time>2025-12-07T12:26:20.000Z</time>
      </trkpt>
      <trkpt lat="43.57276" lon="6.4735">
        <ele>453.5</ele>
        <time>2025-12-07T12:26:30.000Z</time>
      </trkpt>
      <trkpt lat="43.57275" lon="6.47363">
        <ele>452.5</ele>
        <time>2025-12-07T12:26:45.000Z</time>
      </trkpt>
      <trkpt lat="43.57276" lon="6.47376">
        <ele>451.6</ele>
        <time>2025-12-07T12:26:55.000Z</time>
      </trkpt>
      <trkpt lat="43.57276" lon="6.47389">
        <ele>450.2</ele>
        <time>2025-12-07T12:27:06.000Z</time>
      </trkpt>
      <trkpt lat="43.57277" lon="6.47401">
        <ele>449.2</ele>
        <time>2025-12-07T12:27:17.000Z</time>
      </trkpt>
      <trkpt lat="43.57279" lon="6.47414">
        <ele>448.5</ele>
        <time>2025-12-07T12:27:31.000Z</time>
      </trkpt>
      <trkpt lat="43.57279" lon="6.47427">
        <ele>447.5</ele>
        <time>2025-12-07T12:27:43.000Z</time>
      </trkpt>
      <trkpt lat="43.57275" lon="6.47438">
        <ele>447.2</ele>
        <time>2025-12-07T12:27:53.000Z</time>
      </trkpt>
      <trkpt lat="43.57269" lon="6.47448">
        <ele>447.2</ele>
        <time>2025-12-07T12:28:06.000Z</time>
      </trkpt>
      <trkpt lat="43.57261" lon="6.47457">
        <ele>447.2</ele>
        <time>2025-12-07T12:28:20.000Z</time>
      </trkpt>
      <trkpt lat="43.57256" lon="6.47467">
        <ele>447.2</ele>
        <time>2025-12-07T12:28:28.000Z</time>
      </trkpt>
      <trkpt lat="43.5725" lon="6.47477">
        <ele>447.2</ele>
        <time>2025-12-07T12:28:38.000Z</time>
      </trkpt>
      <trkpt lat="43.57244" lon="6.47487">
        <ele>447.2</ele>
        <time>2025-12-07T12:28:47.000Z</time>
      </trkpt>
      <trkpt lat="43.57237" lon="6.47496">
        <ele>447.2</ele>
        <time>2025-12-07T12:28:55.000Z</time>
      </trkpt>
      <trkpt lat="43.57232" lon="6.47507">
        <ele>447.3</ele>
        <time>2025-12-07T12:29:04.000Z</time>
      </trkpt>
      <trkpt lat="43.57227" lon="6.47519">
        <ele>447.6</ele>
        <time>2025-12-07T12:29:15.000Z</time>
      </trkpt>
      <trkpt lat="43.57226" lon="6.47531">
        <ele>447.9</ele>
        <time>2025-12-07T12:29:24.000Z</time>
      </trkpt>
      <trkpt lat="43.57226" lon="6.47544">
        <ele>448.1</ele>
        <time>2025-12-07T12:29:32.000Z</time>
      </trkpt>
      <trkpt lat="43.57222" lon="6.47557">
        <ele>448.4</ele>
        <time>2025-12-07T12:29:43.000Z</time>
      </trkpt>
      <trkpt lat="43.57219" lon="6.47569">
        <ele>448.6</ele>
        <time>2025-12-07T12:29:53.000Z</time>
      </trkpt>
      <trkpt lat="43.57218" lon="6.47582">
        <ele>448.7</ele>
        <time>2025-12-07T12:30:02.000Z</time>
      </trkpt>
      <trkpt lat="43.57216" lon="6.47594">
        <ele>448.7</ele>
        <time>2025-12-07T12:30:16.000Z</time>
      </trkpt>
      <trkpt lat="43.57214" lon="6.47606">
        <ele>448.7</ele>
        <time>2025-12-07T12:30:32.000Z</time>
      </trkpt>
      <trkpt lat="43.57213" lon="6.47619">
        <ele>448.8</ele>
        <time>2025-12-07T12:30:42.000Z</time>
      </trkpt>
      <trkpt lat="43.57211" lon="6.47632">
        <ele>448.9</ele>
        <time>2025-12-07T12:30:51.000Z</time>
      </trkpt>
      <trkpt lat="43.57212" lon="6.47644">
        <ele>448.9</ele>
        <time>2025-12-07T12:30:59.000Z</time>
      </trkpt>
      <trkpt lat="43.5721" lon="6.47658">
        <ele>448.9</ele>
        <time>2025-12-07T12:31:09.000Z</time>
      </trkpt>
      <trkpt lat="43.57208" lon="6.4767">
        <ele>448.7</ele>
        <time>2025-12-07T12:31:19.000Z</time>
      </trkpt>
      <trkpt lat="43.57208" lon="6.47683">
        <ele>448.7</ele>
        <time>2025-12-07T12:31:28.000Z</time>
      </trkpt>
      <trkpt lat="43.57209" lon="6.47696">
        <ele>448.5</ele>
        <time>2025-12-07T12:31:35.000Z</time>
      </trkpt>
      <trkpt lat="43.57212" lon="6.47708">
        <ele>448.1</ele>
        <time>2025-12-07T12:31:44.000Z</time>
      </trkpt>
      <trkpt lat="43.57212" lon="6.47722">
        <ele>448</ele>
        <time>2025-12-07T12:31:53.000Z</time>
      </trkpt>
      <trkpt lat="43.5721" lon="6.47735">
        <ele>447.8</ele>
        <time>2025-12-07T12:32:03.000Z</time>
      </trkpt>
      <trkpt lat="43.57208" lon="6.47748">
        <ele>447.8</ele>
        <time>2025-12-07T12:32:13.000Z</time>
      </trkpt>
      <trkpt lat="43.57205" lon="6.4776">
        <ele>448</ele>
        <time>2025-12-07T12:32:22.000Z</time>
      </trkpt>
      <trkpt lat="43.57204" lon="6.47773">
        <ele>448.5</ele>
        <time>2025-12-07T12:32:30.000Z</time>
      </trkpt>
      <trkpt lat="43.57203" lon="6.47786">
        <ele>448.6</ele>
        <time>2025-12-07T12:32:40.000Z</time>
      </trkpt>
      <trkpt lat="43.57202" lon="6.47799">
        <ele>448.8</ele>
        <time>2025-12-07T12:32:50.000Z</time>
      </trkpt>
      <trkpt lat="43.57199" lon="6.47811">
        <ele>449.3</ele>
        <time>2025-12-07T12:33:00.000Z</time>
      </trkpt>
      <trkpt lat="43.57195" lon="6.47822">
        <ele>450.8</ele>
        <time>2025-12-07T12:33:10.000Z</time>
      </trkpt>
      <trkpt lat="43.57194" lon="6.47834">
        <ele>451.6</ele>
        <time>2025-12-07T12:33:19.000Z</time>
      </trkpt>
      <trkpt lat="43.57192" lon="6.47847">
        <ele>452.1</ele>
        <time>2025-12-07T12:33:30.000Z</time>
      </trkpt>
      <trkpt lat="43.57194" lon="6.47849">
        <ele>452.5</ele>
        <time>2025-12-07T12:33:57.000Z</time>
      </trkpt>
      <trkpt lat="43.57194" lon="6.4785">
        <ele>452.6</ele>
        <time>2025-12-07T12:34:36.000Z</time>
      </trkpt>
      <trkpt lat="43.57194" lon="6.4785">
        <ele>452.8</ele>
        <time>2025-12-07T12:34:59.000Z</time>
      </trkpt>
      <trkpt lat="43.57194" lon="6.4785">
        <ele>452.7</ele>
        <time>2025-12-07T12:35:27.000Z</time>
      </trkpt>
      <trkpt lat="43.57194" lon="6.4785">
        <ele>452.6</ele>
        <time>2025-12-07T12:35:37.000Z</time>
      </trkpt>
      <trkpt lat="43.57194" lon="6.47851">
        <ele>452.4</ele>
        <time>2025-12-07T12:38:57.000Z</time>
      </trkpt>
      <trkpt lat="43.57192" lon="6.47865">
        <ele>452.3</ele>
        <time>2025-12-07T12:39:12.000Z</time>
      </trkpt>
      <trkpt lat="43.5719" lon="6.47878">
        <ele>451.8</ele>
        <time>2025-12-07T12:39:21.000Z</time>
      </trkpt>
      <trkpt lat="43.57187" lon="6.4789">
        <ele>450.6</ele>
        <time>2025-12-07T12:39:31.000Z</time>
      </trkpt>
      <trkpt lat="43.57182" lon="6.479">
        <ele>448.6</ele>
        <time>2025-12-07T12:39:45.000Z</time>
      </trkpt>
      <trkpt lat="43.57175" lon="6.47908">
        <ele>448.2</ele>
        <time>2025-12-07T12:39:54.000Z</time>
      </trkpt>
      <trkpt lat="43.57167" lon="6.47916">
        <ele>447.5</ele>
        <time>2025-12-07T12:40:06.000Z</time>
      </trkpt>
      <trkpt lat="43.57161" lon="6.47926">
        <ele>446.4</ele>
        <time>2025-12-07T12:40:17.000Z</time>
      </trkpt>
      <trkpt lat="43.57157" lon="6.47938">
        <ele>444.9</ele>
        <time>2025-12-07T12:40:30.000Z</time>
      </trkpt>
      <trkpt lat="43.57151" lon="6.47948">
        <ele>443.7</ele>
        <time>2025-12-07T12:40:42.000Z</time>
      </trkpt>
      <trkpt lat="43.57145" lon="6.47958">
        <ele>443</ele>
        <time>2025-12-07T12:40:51.000Z</time>
      </trkpt>
      <trkpt lat="43.57138" lon="6.47966">
        <ele>441.9</ele>
        <time>2025-12-07T12:41:00.000Z</time>
      </trkpt>
      <trkpt lat="43.57133" lon="6.47976">
        <ele>440.8</ele>
        <time>2025-12-07T12:41:09.000Z</time>
      </trkpt>
      <trkpt lat="43.57127" lon="6.47986">
        <ele>440</ele>
        <time>2025-12-07T12:41:19.000Z</time>
      </trkpt>
      <trkpt lat="43.57121" lon="6.47997">
        <ele>439.2</ele>
        <time>2025-12-07T12:41:31.000Z</time>
      </trkpt>
      <trkpt lat="43.57116" lon="6.48008">
        <ele>438.6</ele>
        <time>2025-12-07T12:41:41.000Z</time>
      </trkpt>
      <trkpt lat="43.57112" lon="6.48019">
        <ele>437.9</ele>
        <time>2025-12-07T12:41:51.000Z</time>
      </trkpt>
      <trkpt lat="43.57107" lon="6.4803">
        <ele>436.8</ele>
        <time>2025-12-07T12:42:03.000Z</time>
      </trkpt>
      <trkpt lat="43.57101" lon="6.48041">
        <ele>436.2</ele>
        <time>2025-12-07T12:42:12.000Z</time>
      </trkpt>
      <trkpt lat="43.57097" lon="6.48052">
        <ele>435.9</ele>
        <time>2025-12-07T12:42:19.000Z</time>
      </trkpt>
      <trkpt lat="43.57093" lon="6.48064">
        <ele>435.3</ele>
        <time>2025-12-07T12:42:29.000Z</time>
      </trkpt>
      <trkpt lat="43.57088" lon="6.48076">
        <ele>434.4</ele>
        <time>2025-12-07T12:42:41.000Z</time>
      </trkpt>
      <trkpt lat="43.57084" lon="6.48089">
        <ele>433.2</ele>
        <time>2025-12-07T12:42:52.000Z</time>
      </trkpt>
      <trkpt lat="43.57081" lon="6.48101">
        <ele>432.1</ele>
        <time>2025-12-07T12:43:02.000Z</time>
      </trkpt>
      <trkpt lat="43.5708" lon="6.48114">
        <ele>430.7</ele>
        <time>2025-12-07T12:43:13.000Z</time>
      </trkpt>
      <trkpt lat="43.57079" lon="6.48127">
        <ele>430.1</ele>
        <time>2025-12-07T12:43:24.000Z</time>
      </trkpt>
      <trkpt lat="43.57073" lon="6.48138">
        <ele>428.5</ele>
        <time>2025-12-07T12:43:36.000Z</time>
      </trkpt>
      <trkpt lat="43.57067" lon="6.48147">
        <ele>427.2</ele>
        <time>2025-12-07T12:43:46.000Z</time>
      </trkpt>
      <trkpt lat="43.5706" lon="6.48157">
        <ele>426.3</ele>
        <time>2025-12-07T12:43:55.000Z</time>
      </trkpt>
      <trkpt lat="43.57053" lon="6.48167">
        <ele>424.7</ele>
        <time>2025-12-07T12:44:07.000Z</time>
      </trkpt>
      <trkpt lat="43.57052" lon="6.4818">
        <ele>423.5</ele>
        <time>2025-12-07T12:44:19.000Z</time>
      </trkpt>
      <trkpt lat="43.57049" lon="6.48193">
        <ele>422.7</ele>
        <time>2025-12-07T12:44:28.000Z</time>
      </trkpt>
      <trkpt lat="43.57048" lon="6.48206">
        <ele>421.5</ele>
        <time>2025-12-07T12:44:39.000Z</time>
      </trkpt>
      <trkpt lat="43.57046" lon="6.48219">
        <ele>420.3</ele>
        <time>2025-12-07T12:44:48.000Z</time>
      </trkpt>
      <trkpt lat="43.57046" lon="6.48232">
        <ele>419</ele>
        <time>2025-12-07T12:45:00.000Z</time>
      </trkpt>
      <trkpt lat="43.57045" lon="6.48245">
        <ele>417.8</ele>
        <time>2025-12-07T12:45:10.000Z</time>
      </trkpt>
      <trkpt lat="43.57044" lon="6.48258">
        <ele>417.2</ele>
        <time>2025-12-07T12:45:19.000Z</time>
      </trkpt>
      <trkpt lat="43.57046" lon="6.48271">
        <ele>416.1</ele>
        <time>2025-12-07T12:45:29.000Z</time>
      </trkpt>
      <trkpt lat="43.57049" lon="6.48283">
        <ele>414.9</ele>
        <time>2025-12-07T12:45:39.000Z</time>
      </trkpt>
      <trkpt lat="43.57053" lon="6.48295">
        <ele>413.6</ele>
        <time>2025-12-07T12:45:49.000Z</time>
      </trkpt>
      <trkpt lat="43.57057" lon="6.48306">
        <ele>412.1</ele>
        <time>2025-12-07T12:45:59.000Z</time>
      </trkpt>
      <trkpt lat="43.57063" lon="6.48316">
        <ele>411.1</ele>
        <time>2025-12-07T12:46:09.000Z</time>
      </trkpt>
      <trkpt lat="43.57069" lon="6.48326">
        <ele>410.6</ele>
        <time>2025-12-07T12:46:19.000Z</time>
      </trkpt>
      <trkpt lat="43.57075" lon="6.48336">
        <ele>409.6</ele>
        <time>2025-12-07T12:46:32.000Z</time>
      </trkpt>
      <trkpt lat="43.57081" lon="6.48345">
        <ele>408.5</ele>
        <time>2025-12-07T12:46:42.000Z</time>
      </trkpt>
      <trkpt lat="43.5708" lon="6.48351">
        <ele>407.4</ele>
        <time>2025-12-07T12:47:02.000Z</time>
      </trkpt>
      <trkpt lat="43.57082" lon="6.48354">
        <ele>407.4</ele>
        <time>2025-12-07T12:47:15.000Z</time>
      </trkpt>
      <trkpt lat="43.57083" lon="6.48351">
        <ele>407</ele>
        <time>2025-12-07T12:47:32.000Z</time>
      </trkpt>
      <trkpt lat="43.57084" lon="6.4835">
        <ele>406.9</ele>
        <time>2025-12-07T12:47:36.000Z</time>
      </trkpt>
      <trkpt lat="43.57075" lon="6.48346">
        <ele>405.8</ele>
        <time>2025-12-07T12:47:55.000Z</time>
      </trkpt>
      <trkpt lat="43.57067" lon="6.4834">
        <ele>404.4</ele>
        <time>2025-12-07T12:48:09.000Z</time>
      </trkpt>
      <trkpt lat="43.57058" lon="6.48335">
        <ele>403.4</ele>
        <time>2025-12-07T12:48:23.000Z</time>
      </trkpt>
      <trkpt lat="43.57049" lon="6.48329">
        <ele>402.9</ele>
        <time>2025-12-07T12:48:35.000Z</time>
      </trkpt>
      <trkpt lat="43.57042" lon="6.4832">
        <ele>402.5</ele>
        <time>2025-12-07T12:48:46.000Z</time>
      </trkpt>
      <trkpt lat="43.57036" lon="6.4831">
        <ele>401.6</ele>
        <time>2025-12-07T12:48:59.000Z</time>
      </trkpt>
      <trkpt lat="43.57029" lon="6.48302">
        <ele>401</ele>
        <time>2025-12-07T12:49:08.000Z</time>
      </trkpt>
      <trkpt lat="43.57024" lon="6.48291">
        <ele>400.4</ele>
        <time>2025-12-07T12:49:20.000Z</time>
      </trkpt>
      <trkpt lat="43.5702" lon="6.4828">
        <ele>399.7</ele>
        <time>2025-12-07T12:49:30.000Z</time>
      </trkpt>
      <trkpt lat="43.57018" lon="6.48268">
        <ele>399.2</ele>
        <time>2025-12-07T12:49:40.000Z</time>
      </trkpt>
      <trkpt lat="43.57011" lon="6.48264">
        <ele>398.6</ele>
        <time>2025-12-07T12:50:00.000Z</time>
      </trkpt>
      <trkpt lat="43.57011" lon="6.48264">
        <ele>398.6</ele>
        <time>2025-12-07T12:50:01.000Z</time>
      </trkpt>
      <trkpt lat="43.5701" lon="6.48262">
        <ele>398.7</ele>
        <time>2025-12-07T12:50:47.000Z</time>
      </trkpt>
      <trkpt lat="43.57009" lon="6.48262">
        <ele>398.6</ele>
        <time>2025-12-07T12:51:12.000Z</time>
      </trkpt>
      <trkpt lat="43.57009" lon="6.48262">
        <ele>398.6</ele>
        <time>2025-12-07T12:51:22.000Z</time>
      </trkpt>
      <trkpt lat="43.57007" lon="6.48264">
        <ele>398.6</ele>
        <time>2025-12-07T12:51:27.000Z</time>
      </trkpt>
      <trkpt lat="43.57009" lon="6.48262">
        <ele>398.7</ele>
        <time>2025-12-07T12:51:49.000Z</time>
      </trkpt>
      <trkpt lat="43.57008" lon="6.48262">
        <ele>398.7</ele>
        <time>2025-12-07T12:51:52.000Z</time>
      </trkpt>
      <trkpt lat="43.57007" lon="6.48267">
        <ele>398.7</ele>
        <time>2025-12-07T12:52:11.000Z</time>
      </trkpt>
      <trkpt lat="43.57006" lon="6.48272">
        <ele>398.7</ele>
        <time>2025-12-07T12:52:39.000Z</time>
      </trkpt>
      <trkpt lat="43.57008" lon="6.48285">
        <ele>398.8</ele>
        <time>2025-12-07T12:52:50.000Z</time>
      </trkpt>
      <trkpt lat="43.57014" lon="6.48296">
        <ele>398.9</ele>
        <time>2025-12-07T12:53:00.000Z</time>
      </trkpt>
      <trkpt lat="43.57018" lon="6.48308">
        <ele>399.2</ele>
        <time>2025-12-07T12:53:09.000Z</time>
      </trkpt>
      <trkpt lat="43.57027" lon="6.48315">
        <ele>399.6</ele>
        <time>2025-12-07T12:53:19.000Z</time>
      </trkpt>
      <trkpt lat="43.57033" lon="6.48324">
        <ele>400.5</ele>
        <time>2025-12-07T12:54:02.000Z</time>
      </trkpt>
      <trkpt lat="43.57042" lon="6.4833">
        <ele>400.9</ele>
        <time>2025-12-07T12:54:10.000Z</time>
      </trkpt>
      <trkpt lat="43.57048" lon="6.48341">
        <ele>401.6</ele>
        <time>2025-12-07T12:54:18.000Z</time>
      </trkpt>
      <trkpt lat="43.57056" lon="6.48348">
        <ele>402.3</ele>
        <time>2025-12-07T12:54:28.000Z</time>
      </trkpt>
      <trkpt lat="43.57064" lon="6.48355">
        <ele>403</ele>
        <time>2025-12-07T12:54:37.000Z</time>
      </trkpt>
      <trkpt lat="43.57074" lon="6.4836">
        <ele>403.6</ele>
        <time>2025-12-07T12:54:46.000Z</time>
      </trkpt>
      <trkpt lat="43.57083" lon="6.48363">
        <ele>404.8</ele>
        <time>2025-12-07T12:54:57.000Z</time>
      </trkpt>
      <trkpt lat="43.57091" lon="6.48368">
        <ele>406.2</ele>
        <time>2025-12-07T12:55:15.000Z</time>
      </trkpt>
      <trkpt lat="43.5709" lon="6.48381">
        <ele>405.4</ele>
        <time>2025-12-07T12:55:53.000Z</time>
      </trkpt>
      <trkpt lat="43.5709" lon="6.48392">
        <ele>403.7</ele>
        <time>2025-12-07T12:56:28.000Z</time>
      </trkpt>
      <trkpt lat="43.57089" lon="6.48395">
        <ele>403.7</ele>
        <time>2025-12-07T12:56:44.000Z</time>
      </trkpt>
      <trkpt lat="43.57084" lon="6.48405">
        <ele>403.6</ele>
        <time>2025-12-07T12:57:09.000Z</time>
      </trkpt>
      <trkpt lat="43.57083" lon="6.48418">
        <ele>403.2</ele>
        <time>2025-12-07T12:57:19.000Z</time>
      </trkpt>
      <trkpt lat="43.57082" lon="6.4843">
        <ele>402.3</ele>
        <time>2025-12-07T12:57:31.000Z</time>
      </trkpt>
      <trkpt lat="43.57081" lon="6.48443">
        <ele>401.8</ele>
        <time>2025-12-07T12:57:38.000Z</time>
      </trkpt>
      <trkpt lat="43.57079" lon="6.48455">
        <ele>400.9</ele>
        <time>2025-12-07T12:57:46.000Z</time>
      </trkpt>
      <trkpt lat="43.57075" lon="6.48468">
        <ele>399.5</ele>
        <time>2025-12-07T12:57:56.000Z</time>
      </trkpt>
      <trkpt lat="43.57069" lon="6.48476">
        <ele>398.1</ele>
        <time>2025-12-07T12:58:05.000Z</time>
      </trkpt>
      <trkpt lat="43.57066" lon="6.48489">
        <ele>396.3</ele>
        <time>2025-12-07T12:58:16.000Z</time>
      </trkpt>
      <trkpt lat="43.57064" lon="6.4849">
        <ele>396</ele>
        <time>2025-12-07T12:58:29.000Z</time>
      </trkpt>
      <trkpt lat="43.57062" lon="6.48488">
        <ele>396</ele>
        <time>2025-12-07T12:58:37.000Z</time>
      </trkpt>
      <trkpt lat="43.57054" lon="6.48495">
        <ele>394.8</ele>
        <time>2025-12-07T12:58:56.000Z</time>
      </trkpt>
      <trkpt lat="43.57048" lon="6.48504">
        <ele>394</ele>
        <time>2025-12-07T12:59:08.000Z</time>
      </trkpt>
      <trkpt lat="43.57041" lon="6.48514">
        <ele>393.1</ele>
        <time>2025-12-07T12:59:18.000Z</time>
      </trkpt>
      <trkpt lat="43.57036" lon="6.48527">
        <ele>392</ele>
        <time>2025-12-07T12:59:27.000Z</time>
      </trkpt>
      <trkpt lat="43.57034" lon="6.4854">
        <ele>390.7</ele>
        <time>2025-12-07T12:59:36.000Z</time>
      </trkpt>
      <trkpt lat="43.57031" lon="6.48553">
        <ele>390</ele>
        <time>2025-12-07T12:59:45.000Z</time>
      </trkpt>
      <trkpt lat="43.57032" lon="6.48566">
        <ele>389.3</ele>
        <time>2025-12-07T12:59:53.000Z</time>
      </trkpt>
      <trkpt lat="43.57032" lon="6.48579">
        <ele>388.5</ele>
        <time>2025-12-07T13:00:01.000Z</time>
      </trkpt>
      <trkpt lat="43.57035" lon="6.48591">
        <ele>387.8</ele>
        <time>2025-12-07T13:00:27.000Z</time>
      </trkpt>
      <trkpt lat="43.57033" lon="6.48604">
        <ele>387</ele>
        <time>2025-12-07T13:00:54.000Z</time>
      </trkpt>
      <trkpt lat="43.57032" lon="6.48617">
        <ele>387</ele>
        <time>2025-12-07T13:01:04.000Z</time>
      </trkpt>
      <trkpt lat="43.5703" lon="6.4863">
        <ele>386.8</ele>
        <time>2025-12-07T13:01:14.000Z</time>
      </trkpt>
      <trkpt lat="43.57026" lon="6.48642">
        <ele>386.5</ele>
        <time>2025-12-07T13:01:23.000Z</time>
      </trkpt>
      <trkpt lat="43.57026" lon="6.48654">
        <ele>385.9</ele>
        <time>2025-12-07T13:01:45.000Z</time>
      </trkpt>
      <trkpt lat="43.5702" lon="6.48663">
        <ele>385.8</ele>
        <time>2025-12-07T13:01:52.000Z</time>
      </trkpt>
      <trkpt lat="43.57017" lon="6.48676">
        <ele>385.7</ele>
        <time>2025-12-07T13:02:01.000Z</time>
      </trkpt>
      <trkpt lat="43.57019" lon="6.48689">
        <ele>385.6</ele>
        <time>2025-12-07T13:02:07.000Z</time>
      </trkpt>
      <trkpt lat="43.57022" lon="6.48703">
        <ele>385.4</ele>
        <time>2025-12-07T13:02:15.000Z</time>
      </trkpt>
      <trkpt lat="43.57027" lon="6.48714">
        <ele>385.1</ele>
        <time>2025-12-07T13:02:24.000Z</time>
      </trkpt>
      <trkpt lat="43.57031" lon="6.48727">
        <ele>384.9</ele>
        <time>2025-12-07T13:02:32.000Z</time>
      </trkpt>
      <trkpt lat="43.57033" lon="6.48739">
        <ele>384.6</ele>
        <time>2025-12-07T13:02:41.000Z</time>
      </trkpt>
      <trkpt lat="43.57037" lon="6.48752">
        <ele>384.2</ele>
        <time>2025-12-07T13:02:49.000Z</time>
      </trkpt>
      <trkpt lat="43.57041" lon="6.48763">
        <ele>384</ele>
        <time>2025-12-07T13:02:55.000Z</time>
      </trkpt>
      <trkpt lat="43.57043" lon="6.48775">
        <ele>383.5</ele>
        <time>2025-12-07T13:03:03.000Z</time>
      </trkpt>
      <trkpt lat="43.57045" lon="6.48788">
        <ele>383.1</ele>
        <time>2025-12-07T13:03:13.000Z</time>
      </trkpt>
      <trkpt lat="43.57046" lon="6.48802">
        <ele>382.9</ele>
        <time>2025-12-07T13:03:20.000Z</time>
      </trkpt>
      <trkpt lat="43.57046" lon="6.48815">
        <ele>382.7</ele>
        <time>2025-12-07T13:03:31.000Z</time>
      </trkpt>
      <trkpt lat="43.57049" lon="6.48828">
        <ele>382.6</ele>
        <time>2025-12-07T13:03:39.000Z</time>
      </trkpt>
      <trkpt lat="43.57051" lon="6.48841">
        <ele>382.5</ele>
        <time>2025-12-07T13:03:46.000Z</time>
      </trkpt>
      <trkpt lat="43.57055" lon="6.48854">
        <ele>382.4</ele>
        <time>2025-12-07T13:03:54.000Z</time>
      </trkpt>
      <trkpt lat="43.57063" lon="6.48863">
        <ele>381.3</ele>
        <time>2025-12-07T13:04:49.000Z</time>
      </trkpt>
      <trkpt lat="43.57066" lon="6.48875">
        <ele>381.3</ele>
        <time>2025-12-07T13:04:56.000Z</time>
      </trkpt>
      <trkpt lat="43.5707" lon="6.48886">
        <ele>381.3</ele>
        <time>2025-12-07T13:05:04.000Z</time>
      </trkpt>
      <trkpt lat="43.57075" lon="6.48897">
        <ele>381.2</ele>
        <time>2025-12-07T13:05:12.000Z</time>
      </trkpt>
      <trkpt lat="43.5708" lon="6.48908">
        <ele>381</ele>
        <time>2025-12-07T13:05:23.000Z</time>
      </trkpt>
      <trkpt lat="43.57085" lon="6.48921">
        <ele>380.8</ele>
        <time>2025-12-07T13:05:31.000Z</time>
      </trkpt>
      <trkpt lat="43.57089" lon="6.48933">
        <ele>380.4</ele>
        <time>2025-12-07T13:05:39.000Z</time>
      </trkpt>
      <trkpt lat="43.57093" lon="6.48945">
        <ele>379.7</ele>
        <time>2025-12-07T13:05:50.000Z</time>
      </trkpt>
      <trkpt lat="43.57098" lon="6.48958">
        <ele>379.1</ele>
        <time>2025-12-07T13:05:58.000Z</time>
      </trkpt>
      <trkpt lat="43.57102" lon="6.48969">
        <ele>378.4</ele>
        <time>2025-12-07T13:06:06.000Z</time>
      </trkpt>
      <trkpt lat="43.57105" lon="6.48982">
        <ele>377.7</ele>
        <time>2025-12-07T13:06:14.000Z</time>
      </trkpt>
      <trkpt lat="43.57102" lon="6.48995">
        <ele>377.2</ele>
        <time>2025-12-07T13:06:22.000Z</time>
      </trkpt>
      <trkpt lat="43.57103" lon="6.49008">
        <ele>376.8</ele>
        <time>2025-12-07T13:06:30.000Z</time>
      </trkpt>
      <trkpt lat="43.57104" lon="6.49021">
        <ele>376.4</ele>
        <time>2025-12-07T13:06:41.000Z</time>
      </trkpt>
      <trkpt lat="43.57107" lon="6.49033">
        <ele>376.4</ele>
        <time>2025-12-07T13:06:51.000Z</time>
      </trkpt>
      <trkpt lat="43.57108" lon="6.49033">
        <ele>376.6</ele>
        <time>2025-12-07T13:07:08.000Z</time>
      </trkpt>
      <trkpt lat="43.57111" lon="6.49037">
        <ele>376.8</ele>
        <time>2025-12-07T13:07:23.000Z</time>
      </trkpt>
      <trkpt lat="43.57111" lon="6.49038">
        <ele>376.9</ele>
        <time>2025-12-07T13:07:37.000Z</time>
      </trkpt>
      <trkpt lat="43.57116" lon="6.49041">
        <ele>377.1</ele>
        <time>2025-12-07T13:07:55.000Z</time>
      </trkpt>
      <trkpt lat="43.57122" lon="6.4905">
        <ele>377.3</ele>
        <time>2025-12-07T13:08:38.000Z</time>
      </trkpt>
      <trkpt lat="43.57122" lon="6.4905">
        <ele>377.3</ele>
        <time>2025-12-07T13:08:41.000Z</time>
      </trkpt>
      <trkpt lat="43.57131" lon="6.49054">
        <ele>377.5</ele>
        <time>2025-12-07T13:08:52.000Z</time>
      </trkpt>
      <trkpt lat="43.5713" lon="6.49054">
        <ele>377.6</ele>
        <time>2025-12-07T13:09:07.000Z</time>
      </trkpt>
      <trkpt lat="43.5713" lon="6.49055">
        <ele>377.5</ele>
        <time>2025-12-07T13:09:10.000Z</time>
      </trkpt>
      <trkpt lat="43.57134" lon="6.49056">
        <ele>377.3</ele>
        <time>2025-12-07T13:09:35.000Z</time>
      </trkpt>
      <trkpt lat="43.57136" lon="6.49054">
        <ele>377.1</ele>
        <time>2025-12-07T13:09:51.000Z</time>
      </trkpt>
      <trkpt lat="43.57139" lon="6.49053">
        <ele>377.2</ele>
        <time>2025-12-07T13:10:09.000Z</time>
      </trkpt>
      <trkpt lat="43.57139" lon="6.49052">
        <ele>377.6</ele>
        <time>2025-12-07T13:10:29.000Z</time>
      </trkpt>
      <trkpt lat="43.57134" lon="6.49057">
        <ele>377.4</ele>
        <time>2025-12-07T13:10:57.000Z</time>
      </trkpt>
      <trkpt lat="43.57135" lon="6.49057">
        <ele>376.9</ele>
        <time>2025-12-07T13:11:51.000Z</time>
      </trkpt>
      <trkpt lat="43.57135" lon="6.49057">
        <ele>376.9</ele>
        <time>2025-12-07T13:11:54.000Z</time>
      </trkpt>
      <trkpt lat="43.57136" lon="6.49055">
        <ele>376.8</ele>
        <time>2025-12-07T13:12:02.000Z</time>
      </trkpt>
      <trkpt lat="43.57144" lon="6.49062">
        <ele>376.7</ele>
        <time>2025-12-07T13:12:41.000Z</time>
      </trkpt>
      <trkpt lat="43.5715" lon="6.49072">
        <ele>376.6</ele>
        <time>2025-12-07T13:12:49.000Z</time>
      </trkpt>
      <trkpt lat="43.57159" lon="6.49076">
        <ele>376</ele>
        <time>2025-12-07T13:12:59.000Z</time>
      </trkpt>
      <trkpt lat="43.57167" lon="6.49083">
        <ele>375.2</ele>
        <time>2025-12-07T13:13:11.000Z</time>
      </trkpt>
      <trkpt lat="43.57175" lon="6.49092">
        <ele>374.7</ele>
        <time>2025-12-07T13:13:21.000Z</time>
      </trkpt>
      <trkpt lat="43.57182" lon="6.491">
        <ele>374.1</ele>
        <time>2025-12-07T13:13:30.000Z</time>
      </trkpt>
      <trkpt lat="43.57188" lon="6.4911">
        <ele>373</ele>
        <time>2025-12-07T13:13:41.000Z</time>
      </trkpt>
      <trkpt lat="43.57195" lon="6.49119">
        <ele>371.9</ele>
        <time>2025-12-07T13:13:51.000Z</time>
      </trkpt>
      <trkpt lat="43.57202" lon="6.49126">
        <ele>371</ele>
        <time>2025-12-07T13:14:03.000Z</time>
      </trkpt>
      <trkpt lat="43.57208" lon="6.49136">
        <ele>369.7</ele>
        <time>2025-12-07T13:14:15.000Z</time>
      </trkpt>
      <trkpt lat="43.57214" lon="6.49146">
        <ele>368.2</ele>
        <time>2025-12-07T13:14:30.000Z</time>
      </trkpt>
      <trkpt lat="43.57221" lon="6.49155">
        <ele>366.5</ele>
        <time>2025-12-07T13:14:50.000Z</time>
      </trkpt>
      <trkpt lat="43.57229" lon="6.49162">
        <ele>365.6</ele>
        <time>2025-12-07T13:15:03.000Z</time>
      </trkpt>
      <trkpt lat="43.57238" lon="6.49166">
        <ele>364.7</ele>
        <time>2025-12-07T13:15:16.000Z</time>
      </trkpt>
      <trkpt lat="43.57244" lon="6.49175">
        <ele>364.2</ele>
        <time>2025-12-07T13:15:27.000Z</time>
      </trkpt>
      <trkpt lat="43.57244" lon="6.49188">
        <ele>363.2</ele>
        <time>2025-12-07T13:15:40.000Z</time>
      </trkpt>
      <trkpt lat="43.57243" lon="6.49201">
        <ele>362.1</ele>
        <time>2025-12-07T13:15:51.000Z</time>
      </trkpt>
      <trkpt lat="43.5724" lon="6.49213">
        <ele>359.7</ele>
        <time>2025-12-07T13:16:14.000Z</time>
      </trkpt>
      <trkpt lat="43.57238" lon="6.49226">
        <ele>357.9</ele>
        <time>2025-12-07T13:16:56.000Z</time>
      </trkpt>
      <trkpt lat="43.57242" lon="6.49235">
        <ele>356.7</ele>
        <time>2025-12-07T13:17:32.000Z</time>
      </trkpt>
      <trkpt lat="43.57242" lon="6.49236">
        <ele>356.7</ele>
        <time>2025-12-07T13:17:42.000Z</time>
      </trkpt>
      <trkpt lat="43.57242" lon="6.49237">
        <ele>356.7</ele>
        <time>2025-12-07T13:17:53.000Z</time>
      </trkpt>
      <trkpt lat="43.57238" lon="6.49239">
        <ele>356.7</ele>
        <time>2025-12-07T13:18:04.000Z</time>
      </trkpt>
      <trkpt lat="43.57228" lon="6.49239">
        <ele>355.4</ele>
        <time>2025-12-07T13:18:29.000Z</time>
      </trkpt>
      <trkpt lat="43.57219" lon="6.49241">
        <ele>353.9</ele>
        <time>2025-12-07T13:18:42.000Z</time>
      </trkpt>
      <trkpt lat="43.57209" lon="6.49244">
        <ele>352.7</ele>
        <time>2025-12-07T13:18:54.000Z</time>
      </trkpt>
      <trkpt lat="43.572" lon="6.49241">
        <ele>351.1</ele>
        <time>2025-12-07T13:19:04.000Z</time>
      </trkpt>
      <trkpt lat="43.57192" lon="6.49248">
        <ele>349.4</ele>
        <time>2025-12-07T13:19:18.000Z</time>
      </trkpt>
      <trkpt lat="43.57191" lon="6.4926">
        <ele>348.4</ele>
        <time>2025-12-07T13:19:27.000Z</time>
      </trkpt>
      <trkpt lat="43.57186" lon="6.49271">
        <ele>347.1</ele>
        <time>2025-12-07T13:19:38.000Z</time>
      </trkpt>
      <trkpt lat="43.57177" lon="6.49274">
        <ele>345.6</ele>
        <time>2025-12-07T13:20:00.000Z</time>
      </trkpt>
      <trkpt lat="43.57167" lon="6.49272">
        <ele>344.8</ele>
        <time>2025-12-07T13:20:10.000Z</time>
      </trkpt>
      <trkpt lat="43.57158" lon="6.49274">
        <ele>343.9</ele>
        <time>2025-12-07T13:20:21.000Z</time>
      </trkpt>
      <trkpt lat="43.5715" lon="6.49269">
        <ele>342.8</ele>
        <time>2025-12-07T13:20:34.000Z</time>
      </trkpt>
      <trkpt lat="43.5714" lon="6.49274">
        <ele>342.4</ele>
        <time>2025-12-07T13:20:53.000Z</time>
      </trkpt>
      <trkpt lat="43.57131" lon="6.49276">
        <ele>342</ele>
        <time>2025-12-07T13:21:05.000Z</time>
      </trkpt>
      <trkpt lat="43.57124" lon="6.49286">
        <ele>341.4</ele>
        <time>2025-12-07T13:21:16.000Z</time>
      </trkpt>
      <trkpt lat="43.57119" lon="6.49297">
        <ele>341</ele>
        <time>2025-12-07T13:21:27.000Z</time>
      </trkpt>
      <trkpt lat="43.57115" lon="6.49309">
        <ele>340.8</ele>
        <time>2025-12-07T13:21:40.000Z</time>
      </trkpt>
      <trkpt lat="43.57108" lon="6.49318">
        <ele>339.7</ele>
        <time>2025-12-07T13:22:15.000Z</time>
      </trkpt>
      <trkpt lat="43.57103" lon="6.49328">
        <ele>338.9</ele>
        <time>2025-12-07T13:22:27.000Z</time>
      </trkpt>
      <trkpt lat="43.57094" lon="6.49333">
        <ele>336.7</ele>
        <time>2025-12-07T13:22:52.000Z</time>
      </trkpt>
      <trkpt lat="43.57085" lon="6.49338">
        <ele>335.9</ele>
        <time>2025-12-07T13:23:02.000Z</time>
      </trkpt>
      <trkpt lat="43.57079" lon="6.49348">
        <ele>334.1</ele>
        <time>2025-12-07T13:23:19.000Z</time>
      </trkpt>
      <trkpt lat="43.57071" lon="6.49354">
        <ele>332.9</ele>
        <time>2025-12-07T13:23:32.000Z</time>
      </trkpt>
      <trkpt lat="43.57069" lon="6.49366">
        <ele>331.6</ele>
        <time>2025-12-07T13:23:48.000Z</time>
      </trkpt>
      <trkpt lat="43.57063" lon="6.49376">
        <ele>330.5</ele>
        <time>2025-12-07T13:24:05.000Z</time>
      </trkpt>
      <trkpt lat="43.57059" lon="6.49386">
        <ele>328.8</ele>
        <time>2025-12-07T13:24:21.000Z</time>
      </trkpt>
      <trkpt lat="43.57057" lon="6.494">
        <ele>326.8</ele>
        <time>2025-12-07T13:24:39.000Z</time>
      </trkpt>
      <trkpt lat="43.5705" lon="6.49407">
        <ele>324.2</ele>
        <time>2025-12-07T13:25:00.000Z</time>
      </trkpt>
      <trkpt lat="43.57045" lon="6.49418">
        <ele>322.5</ele>
        <time>2025-12-07T13:25:15.000Z</time>
      </trkpt>
      <trkpt lat="43.5704" lon="6.49429">
        <ele>320.6</ele>
        <time>2025-12-07T13:25:31.000Z</time>
      </trkpt>
      <trkpt lat="43.57034" lon="6.49439">
        <ele>319.3</ele>
        <time>2025-12-07T13:25:45.000Z</time>
      </trkpt>
      <trkpt lat="43.5703" lon="6.49449">
        <ele>318.1</ele>
        <time>2025-12-07T13:26:01.000Z</time>
      </trkpt>
      <trkpt lat="43.57023" lon="6.49459">
        <ele>317.2</ele>
        <time>2025-12-07T13:26:17.000Z</time>
      </trkpt>
      <trkpt lat="43.57017" lon="6.49468">
        <ele>316</ele>
        <time>2025-12-07T13:26:35.000Z</time>
      </trkpt>
      <trkpt lat="43.57012" lon="6.49479">
        <ele>314.9</ele>
        <time>2025-12-07T13:26:50.000Z</time>
      </trkpt>
      <trkpt lat="43.57011" lon="6.49493">
        <ele>314.3</ele>
        <time>2025-12-07T13:27:09.000Z</time>
      </trkpt>
      <trkpt lat="43.57005" lon="6.49503">
        <ele>313.9</ele>
        <time>2025-12-07T13:27:21.000Z</time>
      </trkpt>
      <trkpt lat="43.56999" lon="6.49513">
        <ele>313.2</ele>
        <time>2025-12-07T13:27:35.000Z</time>
      </trkpt>
      <trkpt lat="43.56994" lon="6.49524">
        <ele>312.3</ele>
        <time>2025-12-07T13:28:00.000Z</time>
      </trkpt>
      <trkpt lat="43.56993" lon="6.49536">
        <ele>311.9</ele>
        <time>2025-12-07T13:28:11.000Z</time>
      </trkpt>
      <trkpt lat="43.56989" lon="6.49548">
        <ele>311.5</ele>
        <time>2025-12-07T13:28:22.000Z</time>
      </trkpt>
      <trkpt lat="43.56981" lon="6.49556">
        <ele>311.3</ele>
        <time>2025-12-07T13:28:33.000Z</time>
      </trkpt>
      <trkpt lat="43.56978" lon="6.49568">
        <ele>310.8</ele>
        <time>2025-12-07T13:28:47.000Z</time>
      </trkpt>
      <trkpt lat="43.56973" lon="6.49578">
        <ele>310.4</ele>
        <time>2025-12-07T13:28:58.000Z</time>
      </trkpt>
      <trkpt lat="43.56968" lon="6.4959">
        <ele>310.2</ele>
        <time>2025-12-07T13:29:10.000Z</time>
      </trkpt>
      <trkpt lat="43.56962" lon="6.49599">
        <ele>309.8</ele>
        <time>2025-12-07T13:29:23.000Z</time>
      </trkpt>
      <trkpt lat="43.56964" lon="6.49613">
        <ele>309.3</ele>
        <time>2025-12-07T13:29:32.000Z</time>
      </trkpt>
      <trkpt lat="43.56958" lon="6.49623">
        <ele>309</ele>
        <time>2025-12-07T13:29:47.000Z</time>
      </trkpt>
      <trkpt lat="43.56951" lon="6.49632">
        <ele>308.8</ele>
        <time>2025-12-07T13:29:59.000Z</time>
      </trkpt>
      <trkpt lat="43.56946" lon="6.49642">
        <ele>308.8</ele>
        <time>2025-12-07T13:30:15.000Z</time>
      </trkpt>
      <trkpt lat="43.56945" lon="6.49655">
        <ele>308.8</ele>
        <time>2025-12-07T13:30:27.000Z</time>
      </trkpt>
      <trkpt lat="43.56938" lon="6.49665">
        <ele>308.7</ele>
        <time>2025-12-07T13:30:38.000Z</time>
      </trkpt>
      <trkpt lat="43.56928" lon="6.49666">
        <ele>308.5</ele>
        <time>2025-12-07T13:30:51.000Z</time>
      </trkpt>
      <trkpt lat="43.56917" lon="6.49661">
        <ele>308.4</ele>
        <time>2025-12-07T13:30:55.000Z</time>
      </trkpt>
      <trkpt lat="43.56908" lon="6.4966">
        <ele>307.9</ele>
        <time>2025-12-07T13:31:28.000Z</time>
      </trkpt>
      <trkpt lat="43.56901" lon="6.49667">
        <ele>307.8</ele>
        <time>2025-12-07T13:32:03.000Z</time>
      </trkpt>
      <trkpt lat="43.56893" lon="6.49674">
        <ele>307.8</ele>
        <time>2025-12-07T13:32:17.000Z</time>
      </trkpt>
      <trkpt lat="43.56885" lon="6.4968">
        <ele>307.8</ele>
        <time>2025-12-07T13:32:26.000Z</time>
      </trkpt>
      <trkpt lat="43.5688" lon="6.49692">
        <ele>307.8</ele>
        <time>2025-12-07T13:32:38.000Z</time>
      </trkpt>
      <trkpt lat="43.56881" lon="6.49705">
        <ele>307.8</ele>
        <time>2025-12-07T13:32:55.000Z</time>
      </trkpt>
      <trkpt lat="43.5687" lon="6.49712">
        <ele>308.3</ele>
        <time>2025-12-07T13:33:15.000Z</time>
      </trkpt>
      <trkpt lat="43.56862" lon="6.49719">
        <ele>310.4</ele>
        <time>2025-12-07T13:33:35.000Z</time>
      </trkpt>
      <trkpt lat="43.56863" lon="6.49733">
        <ele>310.8</ele>
        <time>2025-12-07T13:33:44.000Z</time>
      </trkpt>
      <trkpt lat="43.5687" lon="6.49741">
        <ele>311.4</ele>
        <time>2025-12-07T13:33:48.000Z</time>
      </trkpt>
      <trkpt lat="43.56872" lon="6.49749">
        <ele>312.9</ele>
        <time>2025-12-07T13:34:21.000Z</time>
      </trkpt>
      <trkpt lat="43.56877" lon="6.49753">
        <ele>313.1</ele>
        <time>2025-12-07T13:34:37.000Z</time>
      </trkpt>
      <trkpt lat="43.56882" lon="6.49751">
        <ele>313.2</ele>
        <time>2025-12-07T13:34:59.000Z</time>
      </trkpt>
      <trkpt lat="43.56881" lon="6.49748">
        <ele>313.2</ele>
        <time>2025-12-07T13:35:46.000Z</time>
      </trkpt>
      <trkpt lat="43.56879" lon="6.49762">
        <ele>313</ele>
        <time>2025-12-07T13:36:15.000Z</time>
      </trkpt>
      <trkpt lat="43.56873" lon="6.49772">
        <ele>312.4</ele>
        <time>2025-12-07T13:36:55.000Z</time>
      </trkpt>
      <trkpt lat="43.56868" lon="6.49782">
        <ele>312.4</ele>
        <time>2025-12-07T13:37:08.000Z</time>
      </trkpt>
      <trkpt lat="43.5686" lon="6.49789">
        <ele>313</ele>
        <time>2025-12-07T13:37:19.000Z</time>
      </trkpt>
      <trkpt lat="43.56861" lon="6.49802">
        <ele>314.6</ele>
        <time>2025-12-07T13:37:33.000Z</time>
      </trkpt>
      <trkpt lat="43.56864" lon="6.49814">
        <ele>315.8</ele>
        <time>2025-12-07T13:37:48.000Z</time>
      </trkpt>
      <trkpt lat="43.56868" lon="6.49827">
        <ele>316.5</ele>
        <time>2025-12-07T13:38:01.000Z</time>
      </trkpt>
      <trkpt lat="43.56877" lon="6.49829">
        <ele>317.1</ele>
        <time>2025-12-07T13:38:15.000Z</time>
      </trkpt>
      <trkpt lat="43.56885" lon="6.49821">
        <ele>317.6</ele>
        <time>2025-12-07T13:38:24.000Z</time>
      </trkpt>
      <trkpt lat="43.56892" lon="6.49813">
        <ele>318.6</ele>
        <time>2025-12-07T13:38:35.000Z</time>
      </trkpt>
      <trkpt lat="43.56889" lon="6.49801">
        <ele>319.5</ele>
        <time>2025-12-07T13:38:52.000Z</time>
      </trkpt>
      <trkpt lat="43.56881" lon="6.49794">
        <ele>320.4</ele>
        <time>2025-12-07T13:39:03.000Z</time>
      </trkpt>
      <trkpt lat="43.56888" lon="6.49785">
        <ele>322.3</ele>
        <time>2025-12-07T13:39:35.000Z</time>
      </trkpt>
      <trkpt lat="43.56891" lon="6.49773">
        <ele>322.4</ele>
        <time>2025-12-07T13:39:43.000Z</time>
      </trkpt>
      <trkpt lat="43.56885" lon="6.49783">
        <ele>322.5</ele>
        <time>2025-12-07T13:48:52.000Z</time>
      </trkpt>
      <trkpt lat="43.5689" lon="6.49772">
        <ele>325.1</ele>
        <time>2025-12-07T13:49:04.000Z</time>
      </trkpt>
      <trkpt lat="43.56888" lon="6.49767">
        <ele>327.8</ele>
        <time>2025-12-07T13:50:14.000Z</time>
      </trkpt>
      <trkpt lat="43.56886" lon="6.49767">
        <ele>328</ele>
        <time>2025-12-07T13:50:37.000Z</time>
      </trkpt>
      <trkpt lat="43.56884" lon="6.49765">
        <ele>328</ele>
        <time>2025-12-07T13:50:56.000Z</time>
      </trkpt>
      <trkpt lat="43.56886" lon="6.49766">
        <ele>327.9</ele>
        <time>2025-12-07T13:51:19.000Z</time>
      </trkpt>
      <trkpt lat="43.5689" lon="6.49774">
        <ele>327.9</ele>
        <time>2025-12-07T13:51:45.000Z</time>
      </trkpt>
      <trkpt lat="43.56889" lon="6.49775">
        <ele>327.9</ele>
        <time>2025-12-07T13:51:52.000Z</time>
      </trkpt>
      <trkpt lat="43.5689" lon="6.49772">
        <ele>327.8</ele>
        <time>2025-12-07T13:52:24.000Z</time>
      </trkpt>
      <trkpt lat="43.5689" lon="6.49772">
        <ele>327.8</ele>
        <time>2025-12-07T13:52:44.000Z</time>
      </trkpt>
      <trkpt lat="43.56891" lon="6.49772">
        <ele>327.8</ele>
        <time>2025-12-07T13:52:55.000Z</time>
      </trkpt>
      <trkpt lat="43.5689" lon="6.49771">
        <ele>327.9</ele>
        <time>2025-12-07T13:53:05.000Z</time>
      </trkpt>
      <trkpt lat="43.56894" lon="6.49779">
        <ele>327.4</ele>
        <time>2025-12-07T13:53:50.000Z</time>
      </trkpt>
      <trkpt lat="43.56893" lon="6.49779">
        <ele>327.4</ele>
        <time>2025-12-07T13:53:51.000Z</time>
      </trkpt>
      <trkpt lat="43.56891" lon="6.49783">
        <ele>325.8</ele>
        <time>2025-12-07T13:54:44.000Z</time>
      </trkpt>
      <trkpt lat="43.56889" lon="6.49785">
        <ele>325.7</ele>
        <time>2025-12-07T13:54:50.000Z</time>
      </trkpt>
      <trkpt lat="43.5688" lon="6.49781">
        <ele>323.2</ele>
        <time>2025-12-07T13:55:16.000Z</time>
      </trkpt>
      <trkpt lat="43.5688" lon="6.49781">
        <ele>323</ele>
        <time>2025-12-07T13:55:31.000Z</time>
      </trkpt>
      <trkpt lat="43.5688" lon="6.49782">
        <ele>322.9</ele>
        <time>2025-12-07T13:55:40.000Z</time>
      </trkpt>
      <trkpt lat="43.5688" lon="6.49782">
        <ele>322.8</ele>
        <time>2025-12-07T13:55:51.000Z</time>
      </trkpt>
      <trkpt lat="43.5688" lon="6.49783">
        <ele>322.5</ele>
        <time>2025-12-07T13:57:52.000Z</time>
      </trkpt>
      <trkpt lat="43.5688" lon="6.49784">
        <ele>322.5</ele>
        <time>2025-12-07T13:58:02.000Z</time>
      </trkpt>
      <trkpt lat="43.56877" lon="6.49783">
        <ele>322.4</ele>
        <time>2025-12-07T13:59:01.000Z</time>
      </trkpt>
      <trkpt lat="43.5688" lon="6.49795">
        <ele>322.3</ele>
        <time>2025-12-07T13:59:14.000Z</time>
      </trkpt>
      <trkpt lat="43.56883" lon="6.49807">
        <ele>321.1</ele>
        <time>2025-12-07T13:59:29.000Z</time>
      </trkpt>
      <trkpt lat="43.56893" lon="6.4981">
        <ele>320.1</ele>
        <time>2025-12-07T13:59:39.000Z</time>
      </trkpt>
      <trkpt lat="43.56902" lon="6.4981">
        <ele>319.5</ele>
        <time>2025-12-07T13:59:51.000Z</time>
      </trkpt>
      <trkpt lat="43.56909" lon="6.49803">
        <ele>318.5</ele>
        <time>2025-12-07T14:00:19.000Z</time>
      </trkpt>
      <trkpt lat="43.56916" lon="6.49794">
        <ele>317.9</ele>
        <time>2025-12-07T14:00:43.000Z</time>
      </trkpt>
      <trkpt lat="43.56925" lon="6.49788">
        <ele>317.1</ele>
        <time>2025-12-07T14:00:56.000Z</time>
      </trkpt>
      <trkpt lat="43.56931" lon="6.49778">
        <ele>316.5</ele>
        <time>2025-12-07T14:01:10.000Z</time>
      </trkpt>
      <trkpt lat="43.56933" lon="6.49766">
        <ele>316.6</ele>
        <time>2025-12-07T14:01:22.000Z</time>
      </trkpt>
      <trkpt lat="43.56937" lon="6.49755">
        <ele>318</ele>
        <time>2025-12-07T14:01:39.000Z</time>
      </trkpt>
      <trkpt lat="43.56941" lon="6.49743">
        <ele>320.4</ele>
        <time>2025-12-07T14:02:05.000Z</time>
      </trkpt>
      <trkpt lat="43.56945" lon="6.49731">
        <ele>321.9</ele>
        <time>2025-12-07T14:02:25.000Z</time>
      </trkpt>
      <trkpt lat="43.5695" lon="6.4972">
        <ele>323</ele>
        <time>2025-12-07T14:02:37.000Z</time>
      </trkpt>
      <trkpt lat="43.56958" lon="6.49713">
        <ele>323.2</ele>
        <time>2025-12-07T14:02:49.000Z</time>
      </trkpt>
      <trkpt lat="43.56966" lon="6.49707">
        <ele>323</ele>
        <time>2025-12-07T14:03:03.000Z</time>
      </trkpt>
      <trkpt lat="43.56971" lon="6.49703">
        <ele>321.9</ele>
        <time>2025-12-07T14:03:44.000Z</time>
      </trkpt>
      <trkpt lat="43.5697" lon="6.49703">
        <ele>321.9</ele>
        <time>2025-12-07T14:03:51.000Z</time>
      </trkpt>
      <trkpt lat="43.56973" lon="6.49701">
        <ele>322.1</ele>
        <time>2025-12-07T14:04:51.000Z</time>
      </trkpt>
      <trkpt lat="43.56972" lon="6.49704">
        <ele>321.9</ele>
        <time>2025-12-07T14:07:17.000Z</time>
      </trkpt>
      <trkpt lat="43.5697" lon="6.49691">
        <ele>321.5</ele>
        <time>2025-12-07T14:07:57.000Z</time>
      </trkpt>
      <trkpt lat="43.56975" lon="6.49681">
        <ele>319.8</ele>
        <time>2025-12-07T14:08:14.000Z</time>
      </trkpt>
      <trkpt lat="43.56969" lon="6.49671">
        <ele>316.9</ele>
        <time>2025-12-07T14:08:45.000Z</time>
      </trkpt>
      <trkpt lat="43.56962" lon="6.49663">
        <ele>315.6</ele>
        <time>2025-12-07T14:08:57.000Z</time>
      </trkpt>
      <trkpt lat="43.56972" lon="6.49658">
        <ele>314.5</ele>
        <time>2025-12-07T14:09:09.000Z</time>
      </trkpt>
      <trkpt lat="43.56982" lon="6.49658">
        <ele>313.2</ele>
        <time>2025-12-07T14:09:25.000Z</time>
      </trkpt>
      <trkpt lat="43.56974" lon="6.49651">
        <ele>312.3</ele>
        <time>2025-12-07T14:09:48.000Z</time>
      </trkpt>
      <trkpt lat="43.56965" lon="6.49647">
        <ele>311.7</ele>
        <time>2025-12-07T14:09:59.000Z</time>
      </trkpt>
      <trkpt lat="43.56956" lon="6.49649">
        <ele>310.8</ele>
        <time>2025-12-07T14:10:14.000Z</time>
      </trkpt>
      <trkpt lat="43.56948" lon="6.49643">
        <ele>309.9</ele>
        <time>2025-12-07T14:10:26.000Z</time>
      </trkpt>
      <trkpt lat="43.5694" lon="6.49652">
        <ele>308.7</ele>
        <time>2025-12-07T14:11:01.000Z</time>
      </trkpt>
      <trkpt lat="43.56931" lon="6.49658">
        <ele>308.4</ele>
        <time>2025-12-07T14:11:15.000Z</time>
      </trkpt>
      <trkpt lat="43.56923" lon="6.49663">
        <ele>308.3</ele>
        <time>2025-12-07T14:11:21.000Z</time>
      </trkpt>
      <trkpt lat="43.56913" lon="6.49664">
        <ele>308.2</ele>
        <time>2025-12-07T14:11:29.000Z</time>
      </trkpt>
      <trkpt lat="43.56904" lon="6.49662">
        <ele>308.1</ele>
        <time>2025-12-07T14:11:35.000Z</time>
      </trkpt>
      <trkpt lat="43.56895" lon="6.49662">
        <ele>308</ele>
        <time>2025-12-07T14:11:51.000Z</time>
      </trkpt>
      <trkpt lat="43.56887" lon="6.4967">
        <ele>307.9</ele>
        <time>2025-12-07T14:12:01.000Z</time>
      </trkpt>
      <trkpt lat="43.56883" lon="6.49681">
        <ele>307.8</ele>
        <time>2025-12-07T14:12:10.000Z</time>
      </trkpt>
      <trkpt lat="43.56878" lon="6.49692">
        <ele>307.8</ele>
        <time>2025-12-07T14:12:26.000Z</time>
      </trkpt>
      <trkpt lat="43.56873" lon="6.49703">
        <ele>307.8</ele>
        <time>2025-12-07T14:12:34.000Z</time>
      </trkpt>
      <trkpt lat="43.56868" lon="6.49713">
        <ele>307.8</ele>
        <time>2025-12-07T14:12:44.000Z</time>
      </trkpt>
      <trkpt lat="43.56867" lon="6.49726">
        <ele>307.7</ele>
        <time>2025-12-07T14:12:55.000Z</time>
      </trkpt>
      <trkpt lat="43.56867" lon="6.49739">
        <ele>307.7</ele>
        <time>2025-12-07T14:13:09.000Z</time>
      </trkpt>
      <trkpt lat="43.56867" lon="6.49752">
        <ele>307.6</ele>
        <time>2025-12-07T14:13:18.000Z</time>
      </trkpt>
      <trkpt lat="43.56862" lon="6.49761">
        <ele>307.3</ele>
        <time>2025-12-07T14:13:28.000Z</time>
      </trkpt>
      <trkpt lat="43.56856" lon="6.49772">
        <ele>306.9</ele>
        <time>2025-12-07T14:13:39.000Z</time>
      </trkpt>
      <trkpt lat="43.56849" lon="6.4978">
        <ele>306.6</ele>
        <time>2025-12-07T14:13:47.000Z</time>
      </trkpt>
      <trkpt lat="43.5684" lon="6.49787">
        <ele>306.4</ele>
        <time>2025-12-07T14:13:55.000Z</time>
      </trkpt>
      <trkpt lat="43.56832" lon="6.49793">
        <ele>306.3</ele>
        <time>2025-12-07T14:14:17.000Z</time>
      </trkpt>
      <trkpt lat="43.56823" lon="6.49798">
        <ele>306.3</ele>
        <time>2025-12-07T14:14:31.000Z</time>
      </trkpt>
      <trkpt lat="43.56814" lon="6.49808">
        <ele>306.4</ele>
        <time>2025-12-07T14:14:37.000Z</time>
      </trkpt>
      <trkpt lat="43.56804" lon="6.49813">
        <ele>306.5</ele>
        <time>2025-12-07T14:14:47.000Z</time>
      </trkpt>
      <trkpt lat="43.56795" lon="6.49818">
        <ele>307.6</ele>
        <time>2025-12-07T14:15:09.000Z</time>
      </trkpt>
      <trkpt lat="43.56786" lon="6.49815">
        <ele>308.4</ele>
        <time>2025-12-07T14:15:20.000Z</time>
      </trkpt>
      <trkpt lat="43.56778" lon="6.49808">
        <ele>309.1</ele>
        <time>2025-12-07T14:15:31.000Z</time>
      </trkpt>
      <trkpt lat="43.56769" lon="6.49807">
        <ele>310.4</ele>
        <time>2025-12-07T14:15:44.000Z</time>
      </trkpt>
      <trkpt lat="43.56761" lon="6.498">
        <ele>311.7</ele>
        <time>2025-12-07T14:15:57.000Z</time>
      </trkpt>
      <trkpt lat="43.56752" lon="6.498">
        <ele>312.5</ele>
        <time>2025-12-07T14:16:06.000Z</time>
      </trkpt>
      <trkpt lat="43.56743" lon="6.49803">
        <ele>313.2</ele>
        <time>2025-12-07T14:16:17.000Z</time>
      </trkpt>
      <trkpt lat="43.56737" lon="6.49807">
        <ele>314.2</ele>
        <time>2025-12-07T14:16:42.000Z</time>
      </trkpt>
      <trkpt lat="43.56733" lon="6.49811">
        <ele>314.3</ele>
        <time>2025-12-07T14:16:55.000Z</time>
      </trkpt>
      <trkpt lat="43.5674" lon="6.49804">
        <ele>314.5</ele>
        <time>2025-12-07T14:17:34.000Z</time>
      </trkpt>
      <trkpt lat="43.56742" lon="6.49792">
        <ele>314.6</ele>
        <time>2025-12-07T14:17:42.000Z</time>
      </trkpt>
      <trkpt lat="43.56749" lon="6.49783">
        <ele>315.6</ele>
        <time>2025-12-07T14:17:52.000Z</time>
      </trkpt>
      <trkpt lat="43.56749" lon="6.49769">
        <ele>317.4</ele>
        <time>2025-12-07T14:18:03.000Z</time>
      </trkpt>
      <trkpt lat="43.56753" lon="6.49758">
        <ele>318.9</ele>
        <time>2025-12-07T14:18:14.000Z</time>
      </trkpt>
      <trkpt lat="43.56751" lon="6.49746">
        <ele>320.1</ele>
        <time>2025-12-07T14:18:23.000Z</time>
      </trkpt>
      <trkpt lat="43.56747" lon="6.49734">
        <ele>321.7</ele>
        <time>2025-12-07T14:18:35.000Z</time>
      </trkpt>
      <trkpt lat="43.56741" lon="6.49724">
        <ele>323.5</ele>
        <time>2025-12-07T14:18:46.000Z</time>
      </trkpt>
      <trkpt lat="43.56737" lon="6.49713">
        <ele>325</ele>
        <time>2025-12-07T14:18:55.000Z</time>
      </trkpt>
      <trkpt lat="43.56731" lon="6.49702">
        <ele>326.2</ele>
        <time>2025-12-07T14:19:04.000Z</time>
      </trkpt>
      <trkpt lat="43.56729" lon="6.49689">
        <ele>327.6</ele>
        <time>2025-12-07T14:19:15.000Z</time>
      </trkpt>
      <trkpt lat="43.56721" lon="6.49683">
        <ele>329.2</ele>
        <time>2025-12-07T14:19:27.000Z</time>
      </trkpt>
      <trkpt lat="43.56713" lon="6.49676">
        <ele>330.6</ele>
        <time>2025-12-07T14:19:37.000Z</time>
      </trkpt>
      <trkpt lat="43.56706" lon="6.49667">
        <ele>331.8</ele>
        <time>2025-12-07T14:19:48.000Z</time>
      </trkpt>
      <trkpt lat="43.567" lon="6.49657">
        <ele>333.4</ele>
        <time>2025-12-07T14:20:01.000Z</time>
      </trkpt>
      <trkpt lat="43.56704" lon="6.49646">
        <ele>336</ele>
        <time>2025-12-07T14:20:16.000Z</time>
      </trkpt>
      <trkpt lat="43.56711" lon="6.49637">
        <ele>338</ele>
        <time>2025-12-07T14:20:31.000Z</time>
      </trkpt>
      <trkpt lat="43.56716" lon="6.49625">
        <ele>338.7</ele>
        <time>2025-12-07T14:20:32.051Z</time>
      </trkpt>
    </trkseg>
  </trk>
</gpx>